AFR471 FMEE-LFPG
Flight info
| Callsign | AFR471 |
|---|---|
| Flight time | 11h 26m |
| Altitude | 34000 |
| Route | FMEE/12 UVEN2J UVENA DCT IXEBU DCT NIBAK DCT AVUSI DCT XADOX DCT JDW DCT AST DCT ARLOS DCT PNZ DCT OKEKO DCT PIBAT PIBA9X LFPG/OKI1E R08R |
| Aircraft | B77W/H-V/N |
Departure
| Time | 2026-04-25 20:49 |
|---|---|
| Airport | Roland Garros Airport (FMEE) |
Arrival
| Time | 2026-04-26 08:15 |
|---|---|
| Airport | Charles de Gaulle International Airport (LFPG) |
| Time | Latitude | Longitude | Altitude | Speed | Heading |
|---|---|---|---|---|---|
| 2026-04-25 20:28 | -20.89072 | 55.51235 | 84 ft | 0 kts | 207° |
| 2026-04-25 20:38 | -20.89059 | 55.51242 | 85 ft | 3 kts | 209° |
| 2026-04-25 20:38 | -20.89042 | 55.51253 | 83 ft | 3 kts | 213° |
| 2026-04-25 20:38 | -20.89028 | 55.51264 | 85 ft | 2 kts | 225° |
| 2026-04-25 20:39 | -20.89021 | 55.51272 | 85 ft | 1 kts | 243° |
| 2026-04-25 20:39 | -20.89017 | 55.51280 | 85 ft | 1 kts | 264° |
| 2026-04-25 20:39 | -20.89017 | 55.51290 | 85 ft | 1 kts | 282° |
| 2026-04-25 20:39 | -20.89018 | 55.51296 | 85 ft | 1 kts | 288° |
| 2026-04-25 20:40 | -20.89022 | 55.51307 | 85 ft | 1 kts | 294° |
| 2026-04-25 20:40 | -20.89026 | 55.51315 | 85 ft | 1 kts | 296° |
| 2026-04-25 20:40 | -20.89028 | 55.51320 | 85 ft | 0 kts | 297° |
| 2026-04-25 20:42 | -20.89015 | 55.51292 | 85 ft | 6 kts | 297° |
| 2026-04-25 20:43 | -20.88994 | 55.51249 | 85 ft | 6 kts | 297° |
| 2026-04-25 20:43 | -20.88971 | 55.51208 | 85 ft | 6 kts | 314° |
| 2026-04-25 20:43 | -20.88932 | 55.51183 | 83 ft | 7 kts | 330° |
| 2026-04-25 20:43 | -20.88889 | 55.51168 | 69 ft | 7 kts | 342° |
| 2026-04-25 20:44 | -20.88817 | 55.51143 | 62 ft | 16 kts | 342° |
| 2026-04-25 20:44 | -20.88743 | 55.51093 | 58 ft | 12 kts | 302° |
| 2026-04-25 20:44 | -20.88710 | 55.51011 | 64 ft | 12 kts | 283° |
| 2026-04-25 20:44 | -20.88691 | 55.50920 | 55 ft | 13 kts | 283° |
| 2026-04-25 20:45 | -20.88671 | 55.50825 | 56 ft | 13 kts | 283° |
| 2026-04-25 20:45 | -20.88652 | 55.50729 | 57 ft | 13 kts | 281° |
| 2026-04-25 20:45 | -20.88634 | 55.50633 | 55 ft | 13 kts | 281° |
| 2026-04-25 20:45 | -20.88606 | 55.50554 | 50 ft | 11 kts | 307° |
| 2026-04-25 20:46 | -20.88586 | 55.50493 | 52 ft | 6 kts | 241° |
| 2026-04-25 20:46 | -20.88611 | 55.50498 | 51 ft | 4 kts | 120° |
| 2026-04-25 20:46 | -20.88612 | 55.50529 | 56 ft | 4 kts | 99° |
| 2026-04-25 20:46 | -20.88614 | 55.50538 | 57 ft | 0 kts | 102° |
| 2026-04-25 20:48 | -20.88614 | 55.50540 | 51 ft | 5 kts | 103° |
| 2026-04-25 20:48 | -20.88672 | 55.50825 | 56 ft | 81 kts | 102° |
| 2026-04-25 20:48 | -20.88852 | 55.51712 | 57 ft | 162 kts | 102° |
| 2026-04-25 20:48 | -20.89123 | 55.53104 | 295 ft | 209 kts | 102° |
| 2026-04-25 20:49 | -20.89356 | 55.54640 | 1333 ft | 216 kts | 87° |
| 2026-04-25 20:49 | -20.88751 | 55.56160 | 1984 ft | 236 kts | 48° |
| 2026-04-25 20:49 | -20.87328 | 55.57102 | 2366 ft | 251 kts | 14° |
| 2026-04-25 20:49 | -20.85565 | 55.57159 | 2745 ft | 260 kts | 352° |
| 2026-04-25 20:50 | -20.83719 | 55.56825 | 3094 ft | 275 kts | 352° |
| 2026-04-25 20:50 | -20.81828 | 55.56517 | 3763 ft | 276 kts | 353° |
| 2026-04-25 20:50 | -20.79925 | 55.56228 | 4387 ft | 279 kts | 353° |
| 2026-04-25 20:50 | -20.78003 | 55.55934 | 5054 ft | 279 kts | 352° |
| 2026-04-25 20:51 | -20.76121 | 55.55359 | 5508 ft | 284 kts | 336° |
| 2026-04-25 20:51 | -20.74317 | 55.54459 | 6057 ft | 289 kts | 336° |
| 2026-04-25 20:51 | -20.72468 | 55.53572 | 6586 ft | 293 kts | 337° |
| 2026-04-25 20:51 | -20.70573 | 55.52728 | 7151 ft | 296 kts | 339° |
| 2026-04-25 20:52 | -20.68645 | 55.51904 | 7691 ft | 300 kts | 339° |
| 2026-04-25 20:52 | -20.67359 | 55.51357 | 8080 ft | 301 kts | 339° |
| 2026-04-25 20:52 | -20.64790 | 55.50261 | 8929 ft | 301 kts | 339° |
| 2026-04-25 20:52 | -20.62835 | 55.49419 | 9515 ft | 302 kts | 338° |
| 2026-04-25 20:53 | -20.60886 | 55.48563 | 10115 ft | 303 kts | 338° |
| 2026-04-25 20:53 | -20.58906 | 55.47694 | 10446 ft | 315 kts | 338° |
| 2026-04-25 20:53 | -20.56814 | 55.46780 | 10559 ft | 334 kts | 338° |
| 2026-04-25 20:53 | -20.54608 | 55.45816 | 10745 ft | 352 kts | 338° |
| 2026-04-25 20:54 | -20.52270 | 55.44795 | 10837 ft | 373 kts | 338° |
| 2026-04-25 20:54 | -20.49814 | 55.43723 | 11146 ft | 384 kts | 338° |
| 2026-04-25 20:54 | -20.47373 | 55.42656 | 11881 ft | 381 kts | 338° |
| 2026-04-25 20:54 | -20.44918 | 55.41583 | 12586 ft | 384 kts | 338° |
| 2026-04-25 20:55 | -20.42414 | 55.40491 | 12982 ft | 392 kts | 338° |
| 2026-04-25 20:55 | -20.39889 | 55.39390 | 13759 ft | 389 kts | 338° |
| 2026-04-25 20:55 | -20.37376 | 55.38294 | 14249 ft | 395 kts | 338° |
| 2026-04-25 20:55 | -20.34800 | 55.37170 | 14656 ft | 401 kts | 338° |
| 2026-04-25 20:56 | -20.32212 | 55.36041 | 15246 ft | 400 kts | 338° |
| 2026-04-25 20:56 | -20.29680 | 55.34937 | 15944 ft | 399 kts | 338° |
| 2026-04-25 20:56 | -20.27062 | 55.33797 | 16162 ft | 411 kts | 338° |
| 2026-04-25 20:56 | -20.24422 | 55.32648 | 16852 ft | 407 kts | 338° |
| 2026-04-25 20:57 | -20.21778 | 55.31497 | 17197 ft | 417 kts | 338° |
| 2026-04-25 20:57 | -20.19068 | 55.30318 | 17605 ft | 421 kts | 338° |
| 2026-04-25 20:57 | -20.16370 | 55.29144 | 18361 ft | 416 kts | 338° |
| 2026-04-25 20:57 | -20.13690 | 55.27978 | 18571 ft | 427 kts | 337° |
| 2026-04-25 20:58 | -20.10940 | 55.26784 | 19094 ft | 425 kts | 337° |
| 2026-04-25 20:58 | -20.08172 | 55.25581 | 19332 ft | 434 kts | 337° |
| 2026-04-25 20:58 | -20.05363 | 55.24361 | 19684 ft | 439 kts | 336° |
| 2026-04-25 20:58 | -20.02516 | 55.23125 | 20044 ft | 443 kts | 336° |
| 2026-04-25 20:59 | -19.99651 | 55.21882 | 20464 ft | 446 kts | 336° |
| 2026-04-25 20:59 | -19.96755 | 55.20626 | 20764 ft | 451 kts | 336° |
| 2026-04-25 20:59 | -19.93825 | 55.19355 | 21067 ft | 457 kts | 336° |
| 2026-04-25 20:59 | -19.90859 | 55.18070 | 21374 ft | 462 kts | 336° |
| 2026-04-25 21:00 | -19.87905 | 55.16789 | 21667 ft | 466 kts | 336° |
| 2026-04-25 21:00 | -19.86888 | 55.16349 | 21784 ft | 468 kts | 336° |
| 2026-04-25 21:00 | -19.78779 | 55.12840 | 22744 ft | 475 kts | 335° |
| 2026-04-25 21:01 | -19.75741 | 55.11526 | 23088 ft | 478 kts | 335° |
| 2026-04-25 21:01 | -19.72646 | 55.10188 | 23419 ft | 481 kts | 335° |
| 2026-04-25 21:01 | -19.69533 | 55.08842 | 23716 ft | 484 kts | 335° |
| 2026-04-25 21:01 | -19.66765 | 55.07647 | 23979 ft | 486 kts | 335° |
| 2026-04-25 21:02 | -19.63624 | 55.06291 | 24311 ft | 487 kts | 335° |
| 2026-04-25 21:02 | -19.60468 | 55.04929 | 24636 ft | 488 kts | 335° |
| 2026-04-25 21:02 | -19.57317 | 55.03570 | 24946 ft | 490 kts | 335° |
| 2026-04-25 21:02 | -19.54194 | 55.02223 | 25238 ft | 491 kts | 335° |
| 2026-04-25 21:03 | -19.51011 | 55.00851 | 25517 ft | 494 kts | 335° |
| 2026-04-25 21:03 | -19.47823 | 54.99477 | 25800 ft | 495 kts | 335° |
| 2026-04-25 21:03 | -19.44622 | 54.98098 | 26097 ft | 497 kts | 335° |
| 2026-04-25 21:03 | -19.41412 | 54.96716 | 26386 ft | 499 kts | 335° |
| 2026-04-25 21:04 | -19.38190 | 54.95330 | 26679 ft | 500 kts | 335° |
| 2026-04-25 21:04 | -19.34961 | 54.93941 | 26969 ft | 502 kts | 335° |
| 2026-04-25 21:04 | -19.31716 | 54.92546 | 27247 ft | 503 kts | 335° |
| 2026-04-25 21:04 | -19.28468 | 54.91150 | 27525 ft | 505 kts | 335° |
| 2026-04-25 21:05 | -19.25207 | 54.89749 | 27801 ft | 506 kts | 335° |
| 2026-04-25 21:05 | -19.21930 | 54.88342 | 28062 ft | 508 kts | 335° |
| 2026-04-25 21:05 | -19.18688 | 54.86950 | 28308 ft | 510 kts | 335° |
| 2026-04-25 21:05 | -19.15389 | 54.85535 | 28558 ft | 511 kts | 335° |
| 2026-04-25 21:06 | -19.12212 | 54.84172 | 28781 ft | 513 kts | 335° |
| 2026-04-25 21:06 | -19.08898 | 54.82751 | 29011 ft | 514 kts | 335° |
| 2026-04-25 21:06 | -19.05577 | 54.81328 | 29243 ft | 515 kts | 335° |
| 2026-04-25 21:06 | -19.03378 | 54.80386 | 29410 ft | 515 kts | 335° |
| 2026-04-25 21:07 | -18.99047 | 54.78270 | 29778 ft | 509 kts | 323° |
| 2026-04-25 21:07 | -18.96388 | 54.75940 | 29995 ft | 500 kts | 312° |
| 2026-04-25 21:07 | -18.93919 | 54.73356 | 30192 ft | 500 kts | 311° |
| 2026-04-25 21:07 | -18.91458 | 54.70764 | 30504 ft | 498 kts | 311° |
| 2026-04-25 21:08 | -18.88990 | 54.68206 | 30904 ft | 494 kts | 312° |
| 2026-04-25 21:08 | -18.86520 | 54.65696 | 31279 ft | 490 kts | 313° |
| 2026-04-25 21:08 | -18.84049 | 54.63221 | 31657 ft | 487 kts | 313° |
| 2026-04-25 21:08 | -18.81585 | 54.60771 | 31902 ft | 487 kts | 313° |
| 2026-04-25 21:09 | -18.76641 | 54.55869 | 31937 ft | 487 kts | 313° |
| 2026-04-25 21:09 | -18.71748 | 54.51016 | 31939 ft | 484 kts | 313° |
| 2026-04-25 21:10 | -18.66853 | 54.46157 | 31944 ft | 483 kts | 313° |
| 2026-04-25 21:10 | -18.61962 | 54.41310 | 31944 ft | 482 kts | 314° |
| 2026-04-25 21:11 | -18.59308 | 54.39125 | 31929 ft | 489 kts | 328° |
| 2026-04-25 21:11 | -18.56241 | 54.37582 | 31965 ft | 489 kts | 332° |
| 2026-04-25 21:11 | -18.49949 | 54.34728 | 31955 ft | 493 kts | 333° |
| 2026-04-25 21:12 | -18.43637 | 54.31837 | 31947 ft | 496 kts | 332° |
| 2026-04-25 21:12 | -18.38393 | 54.29371 | 31944 ft | 497 kts | 332° |
| 2026-04-25 21:13 | -18.31055 | 54.25874 | 31938 ft | 498 kts | 332° |
| 2026-04-25 21:13 | -18.24735 | 54.22859 | 31941 ft | 497 kts | 332° |
| 2026-04-25 21:14 | -18.18435 | 54.19858 | 31940 ft | 496 kts | 332° |
| 2026-04-25 21:14 | -18.12152 | 54.16871 | 31939 ft | 494 kts | 332° |
| 2026-04-25 21:15 | -18.05934 | 54.13918 | 31939 ft | 492 kts | 332° |
| 2026-04-25 21:15 | -17.99686 | 54.10952 | 31942 ft | 491 kts | 332° |
| 2026-04-25 21:16 | -17.93478 | 54.08007 | 31941 ft | 491 kts | 332° |
| 2026-04-25 21:16 | -17.87235 | 54.05048 | 31942 ft | 491 kts | 332° |
| 2026-04-25 21:17 | -17.80998 | 54.02093 | 31940 ft | 491 kts | 332° |
| 2026-04-25 21:17 | -17.74779 | 53.99151 | 31942 ft | 491 kts | 332° |
| 2026-04-25 21:18 | -17.68533 | 53.96197 | 31941 ft | 492 kts | 332° |
| 2026-04-25 21:18 | -17.62297 | 53.93251 | 31934 ft | 492 kts | 332° |
| 2026-04-25 21:19 | -17.56081 | 53.90316 | 31947 ft | 492 kts | 332° |
| 2026-04-25 21:19 | -17.49836 | 53.87370 | 31938 ft | 491 kts | 332° |
| 2026-04-25 21:20 | -17.45714 | 53.85427 | 31934 ft | 491 kts | 332° |
| 2026-04-25 21:20 | -17.37400 | 53.81510 | 31924 ft | 490 kts | 332° |
| 2026-04-25 21:21 | -17.31204 | 53.78593 | 31940 ft | 489 kts | 332° |
| 2026-04-25 21:21 | -17.24983 | 53.75667 | 31945 ft | 489 kts | 332° |
| 2026-04-25 21:22 | -17.19807 | 53.73234 | 31925 ft | 489 kts | 332° |
| 2026-04-25 21:22 | -17.12608 | 53.69853 | 31938 ft | 488 kts | 332° |
| 2026-04-25 21:23 | -17.07448 | 53.67431 | 31939 ft | 488 kts | 332° |
| 2026-04-25 21:23 | -17.01227 | 53.64513 | 31937 ft | 488 kts | 332° |
| 2026-04-25 21:24 | -16.95056 | 53.61620 | 31936 ft | 488 kts | 332° |
| 2026-04-25 21:24 | -16.88821 | 53.58700 | 31937 ft | 488 kts | 332° |
| 2026-04-25 21:25 | -16.82657 | 53.55815 | 31935 ft | 488 kts | 332° |
| 2026-04-25 21:25 | -16.76463 | 53.52919 | 31939 ft | 488 kts | 332° |
| 2026-04-25 21:26 | -16.70232 | 53.50006 | 31935 ft | 488 kts | 332° |
| 2026-04-25 21:26 | -16.64040 | 53.47115 | 31936 ft | 488 kts | 333° |
| 2026-04-25 21:27 | -16.57864 | 53.44233 | 31938 ft | 488 kts | 333° |
| 2026-04-25 21:27 | -16.51637 | 53.41329 | 31937 ft | 488 kts | 333° |
| 2026-04-25 21:28 | -16.45451 | 53.38446 | 31935 ft | 488 kts | 333° |
| 2026-04-25 21:28 | -16.39235 | 53.35551 | 31936 ft | 488 kts | 333° |
| 2026-04-25 21:29 | -16.33059 | 53.32677 | 31939 ft | 488 kts | 333° |
| 2026-04-25 21:29 | -16.26873 | 53.29801 | 31936 ft | 488 kts | 333° |
| 2026-04-25 21:30 | -16.20653 | 53.26910 | 31937 ft | 488 kts | 333° |
| 2026-04-25 21:30 | -16.15505 | 53.24519 | 31939 ft | 488 kts | 333° |
| 2026-04-25 21:31 | -16.08305 | 53.21177 | 31936 ft | 488 kts | 333° |
| 2026-04-25 21:31 | -16.02112 | 53.18305 | 31933 ft | 487 kts | 333° |
| 2026-04-25 21:32 | -15.95904 | 53.15428 | 31933 ft | 487 kts | 333° |
| 2026-04-25 21:32 | -15.89725 | 53.12566 | 31934 ft | 487 kts | 333° |
| 2026-04-25 21:33 | -15.83535 | 53.09702 | 31934 ft | 487 kts | 333° |
| 2026-04-25 21:33 | -15.77332 | 53.06833 | 31931 ft | 487 kts | 333° |
| 2026-04-25 21:34 | -15.71135 | 53.03969 | 31932 ft | 487 kts | 333° |
| 2026-04-25 21:34 | -15.64968 | 53.01120 | 31935 ft | 487 kts | 334° |
| 2026-04-25 21:35 | -15.58769 | 52.98259 | 31932 ft | 487 kts | 334° |
| 2026-04-25 21:35 | -15.52567 | 52.95398 | 31932 ft | 487 kts | 334° |
| 2026-04-25 21:36 | -15.46408 | 52.92559 | 31931 ft | 487 kts | 334° |
| 2026-04-25 21:36 | -15.40217 | 52.89707 | 31931 ft | 486 kts | 334° |
| 2026-04-25 21:37 | -15.35077 | 52.87340 | 31928 ft | 486 kts | 334° |
| 2026-04-25 21:37 | -15.27880 | 52.84029 | 31932 ft | 486 kts | 334° |
| 2026-04-25 21:38 | -15.21693 | 52.81184 | 31930 ft | 486 kts | 334° |
| 2026-04-25 21:38 | -15.15519 | 52.78347 | 31931 ft | 485 kts | 334° |
| 2026-04-25 21:39 | -15.09347 | 52.75513 | 31930 ft | 485 kts | 334° |
| 2026-04-25 21:39 | -15.03178 | 52.72683 | 31929 ft | 485 kts | 334° |
| 2026-04-25 21:40 | -14.97038 | 52.69867 | 31929 ft | 484 kts | 334° |
| 2026-04-25 21:40 | -14.90871 | 52.67040 | 31928 ft | 484 kts | 334° |
| 2026-04-25 21:41 | -14.84700 | 52.64214 | 31927 ft | 484 kts | 334° |
| 2026-04-25 21:41 | -14.78581 | 52.61413 | 31928 ft | 484 kts | 334° |
| 2026-04-25 21:42 | -14.72421 | 52.58595 | 31932 ft | 484 kts | 334° |
| 2026-04-25 21:42 | -14.66242 | 52.55770 | 31929 ft | 484 kts | 334° |
| 2026-04-25 21:43 | -14.60079 | 52.52954 | 31925 ft | 485 kts | 334° |
| 2026-04-25 21:43 | -14.53946 | 52.50154 | 31932 ft | 485 kts | 334° |
| 2026-04-25 21:44 | -14.47772 | 52.47337 | 31925 ft | 485 kts | 334° |
| 2026-04-25 21:45 | -14.38512 | 52.43114 | 31926 ft | 485 kts | 334° |
| 2026-04-25 21:45 | -14.32333 | 52.40299 | 31927 ft | 485 kts | 334° |
| 2026-04-25 21:46 | -14.26144 | 52.37481 | 31927 ft | 485 kts | 334° |
| 2026-04-25 21:46 | -14.19969 | 52.34671 | 31929 ft | 485 kts | 334° |
| 2026-04-25 21:47 | -14.13833 | 52.31880 | 31930 ft | 485 kts | 334° |
| 2026-04-25 21:47 | -14.07639 | 52.29065 | 31930 ft | 485 kts | 334° |
| 2026-04-25 21:48 | -14.01451 | 52.26254 | 31928 ft | 485 kts | 334° |
| 2026-04-25 21:48 | -13.95316 | 52.23468 | 31926 ft | 485 kts | 334° |
| 2026-04-25 21:49 | -13.89133 | 52.20662 | 31926 ft | 485 kts | 334° |
| 2026-04-25 21:49 | -13.82972 | 52.17869 | 31924 ft | 485 kts | 334° |
| 2026-04-25 21:50 | -13.76802 | 52.15072 | 31925 ft | 485 kts | 334° |
| 2026-04-25 21:50 | -13.70600 | 52.12263 | 31928 ft | 485 kts | 334° |
| 2026-04-25 21:51 | -13.64437 | 52.09473 | 31922 ft | 485 kts | 334° |
| 2026-04-25 21:51 | -13.58288 | 52.06692 | 31925 ft | 485 kts | 334° |
| 2026-04-25 21:52 | -13.52127 | 52.03906 | 31924 ft | 485 kts | 334° |
| 2026-04-25 21:52 | -13.45956 | 52.01117 | 31925 ft | 485 kts | 334° |
| 2026-04-25 21:53 | -13.39762 | 51.98319 | 31918 ft | 485 kts | 334° |
| 2026-04-25 21:53 | -13.33593 | 51.95535 | 31921 ft | 485 kts | 334° |
| 2026-04-25 21:54 | -13.27442 | 51.92760 | 31922 ft | 485 kts | 334° |
| 2026-04-25 21:54 | -13.21243 | 51.89964 | 31924 ft | 485 kts | 334° |
| 2026-04-25 21:55 | -13.15064 | 51.87180 | 31920 ft | 485 kts | 334° |
| 2026-04-25 21:55 | -13.08902 | 51.84405 | 31920 ft | 485 kts | 334° |
| 2026-04-25 21:56 | -13.02723 | 51.81623 | 31922 ft | 485 kts | 334° |
| 2026-04-25 21:56 | -12.96535 | 51.78839 | 31921 ft | 485 kts | 334° |
| 2026-04-25 21:57 | -12.90351 | 51.76058 | 31919 ft | 485 kts | 334° |
| 2026-04-25 21:57 | -12.84162 | 51.73277 | 31918 ft | 485 kts | 334° |
| 2026-04-25 21:58 | -12.78007 | 51.70512 | 31920 ft | 485 kts | 334° |
| 2026-04-25 21:58 | -12.71813 | 51.67732 | 31922 ft | 485 kts | 334° |
| 2026-04-25 21:59 | -12.65626 | 51.64955 | 31919 ft | 485 kts | 335° |
| 2026-04-25 21:59 | -12.59437 | 51.62180 | 31917 ft | 485 kts | 335° |
| 2026-04-25 22:00 | -12.50184 | 51.58033 | 31917 ft | 485 kts | 335° |
| 2026-04-25 22:00 | -12.43989 | 51.55258 | 31918 ft | 485 kts | 335° |
| 2026-04-25 22:01 | -12.37833 | 51.52502 | 31916 ft | 485 kts | 335° |
| 2026-04-25 22:01 | -12.32645 | 51.50181 | 31919 ft | 485 kts | 335° |
| 2026-04-25 22:02 | -12.25436 | 51.46957 | 31914 ft | 485 kts | 335° |
| 2026-04-25 22:02 | -12.19247 | 51.44190 | 31912 ft | 485 kts | 335° |
| 2026-04-25 22:03 | -12.13108 | 51.41447 | 31912 ft | 483 kts | 335° |
| 2026-04-25 22:03 | -12.06954 | 51.38698 | 31921 ft | 482 kts | 335° |
| 2026-04-25 22:04 | -12.00796 | 51.35948 | 31912 ft | 482 kts | 335° |
| 2026-04-25 22:04 | -11.94634 | 51.33195 | 31913 ft | 483 kts | 335° |
| 2026-04-25 22:05 | -11.88469 | 51.30443 | 31913 ft | 483 kts | 335° |
| 2026-04-25 22:05 | -11.82336 | 51.27705 | 31910 ft | 484 kts | 335° |
| 2026-04-25 22:06 | -11.76152 | 51.24948 | 31910 ft | 485 kts | 335° |
| 2026-04-25 22:06 | -11.69966 | 51.22190 | 31914 ft | 485 kts | 335° |
| 2026-04-25 22:07 | -11.64823 | 51.19898 | 31912 ft | 486 kts | 335° |
| 2026-04-25 22:07 | -11.57586 | 51.16675 | 31914 ft | 486 kts | 335° |
| 2026-04-25 22:08 | -11.51410 | 51.13926 | 31909 ft | 486 kts | 335° |
| 2026-04-25 22:08 | -11.45193 | 51.11160 | 31911 ft | 486 kts | 335° |
| 2026-04-25 22:09 | -11.39011 | 51.08411 | 31911 ft | 486 kts | 335° |
| 2026-04-25 22:09 | -11.32812 | 51.05655 | 31911 ft | 486 kts | 335° |
| 2026-04-25 22:10 | -11.26623 | 51.02905 | 31910 ft | 486 kts | 335° |
| 2026-04-25 22:10 | -11.20419 | 51.00150 | 31908 ft | 486 kts | 335° |
| 2026-04-25 22:11 | -11.14254 | 50.97414 | 31906 ft | 486 kts | 335° |
| 2026-04-25 22:11 | -11.09092 | 50.95124 | 31911 ft | 486 kts | 335° |
| 2026-04-25 22:12 | -11.01847 | 50.91911 | 31909 ft | 486 kts | 335° |
| 2026-04-25 22:12 | -10.97703 | 50.90074 | 31910 ft | 486 kts | 335° |
| 2026-04-25 22:13 | -10.90471 | 50.86869 | 31907 ft | 486 kts | 335° |
| 2026-04-25 22:13 | -10.84280 | 50.84127 | 31908 ft | 487 kts | 335° |
| 2026-04-25 22:14 | -10.78059 | 50.81374 | 31908 ft | 487 kts | 335° |
| 2026-04-25 22:14 | -10.71839 | 50.78621 | 31906 ft | 487 kts | 335° |
| 2026-04-25 22:15 | -10.65616 | 50.75869 | 31905 ft | 487 kts | 335° |
| 2026-04-25 22:16 | -10.56331 | 50.71764 | 31907 ft | 487 kts | 335° |
| 2026-04-25 22:16 | -10.50107 | 50.69015 | 31905 ft | 487 kts | 335° |
| 2026-04-25 22:17 | -10.43885 | 50.66267 | 31908 ft | 487 kts | 335° |
| 2026-04-25 22:17 | -10.37706 | 50.63540 | 31903 ft | 487 kts | 335° |
| 2026-04-25 22:18 | -10.31455 | 50.60782 | 31905 ft | 487 kts | 335° |
| 2026-04-25 22:18 | -10.25270 | 50.58054 | 31904 ft | 487 kts | 335° |
| 2026-04-25 22:19 | -10.19047 | 50.55311 | 31905 ft | 486 kts | 335° |
| 2026-04-25 22:19 | -10.12850 | 50.52580 | 31903 ft | 486 kts | 335° |
| 2026-04-25 22:20 | -10.06669 | 50.49858 | 31905 ft | 486 kts | 335° |
| 2026-04-25 22:20 | -10.00472 | 50.47129 | 31903 ft | 485 kts | 335° |
| 2026-04-25 22:21 | -9.94276 | 50.44402 | 31902 ft | 485 kts | 335° |
| 2026-04-25 22:21 | -9.88075 | 50.41675 | 31901 ft | 485 kts | 335° |
| 2026-04-25 22:22 | -9.81889 | 50.38955 | 31902 ft | 485 kts | 335° |
| 2026-04-25 22:22 | -9.75728 | 50.36246 | 31904 ft | 485 kts | 335° |
| 2026-04-25 22:23 | -9.69536 | 50.33526 | 31902 ft | 485 kts | 335° |
| 2026-04-25 22:23 | -9.63342 | 50.30806 | 31901 ft | 485 kts | 335° |
| 2026-04-25 22:24 | -9.57141 | 50.28083 | 31901 ft | 485 kts | 335° |
| 2026-04-25 22:24 | -9.50985 | 50.25382 | 31901 ft | 485 kts | 335° |
| 2026-04-25 22:25 | -9.44781 | 50.22660 | 31902 ft | 485 kts | 335° |
| 2026-04-25 22:25 | -9.38580 | 50.19941 | 31901 ft | 485 kts | 335° |
| 2026-04-25 22:26 | -9.32383 | 50.17225 | 31898 ft | 485 kts | 335° |
| 2026-04-25 22:26 | -9.26226 | 50.14527 | 31897 ft | 485 kts | 335° |
| 2026-04-25 22:27 | -9.20028 | 50.11813 | 31899 ft | 485 kts | 335° |
| 2026-04-25 22:27 | -9.13829 | 50.09098 | 31901 ft | 485 kts | 335° |
| 2026-04-25 22:28 | -9.07629 | 50.06385 | 31896 ft | 485 kts | 335° |
| 2026-04-25 22:28 | -9.01439 | 50.03677 | 31894 ft | 485 kts | 335° |
| 2026-04-25 22:29 | -8.95260 | 50.00975 | 31893 ft | 485 kts | 335° |
| 2026-04-25 22:29 | -8.89082 | 49.98274 | 31894 ft | 485 kts | 335° |
| 2026-04-25 22:30 | -8.79789 | 49.94213 | 31894 ft | 485 kts | 335° |
| 2026-04-25 22:30 | -8.74604 | 49.91948 | 31894 ft | 485 kts | 335° |
| 2026-04-25 22:31 | -8.67392 | 49.88799 | 31894 ft | 484 kts | 336° |
| 2026-04-25 22:31 | -8.61211 | 49.86102 | 31887 ft | 483 kts | 336° |
| 2026-04-25 22:32 | -8.55058 | 49.83418 | 31887 ft | 481 kts | 336° |
| 2026-04-25 22:32 | -8.48934 | 49.80747 | 31891 ft | 480 kts | 336° |
| 2026-04-25 22:33 | -8.42799 | 49.78072 | 31890 ft | 480 kts | 336° |
| 2026-04-25 22:33 | -8.36665 | 49.75399 | 31888 ft | 480 kts | 336° |
| 2026-04-25 22:34 | -8.30527 | 49.72724 | 31888 ft | 481 kts | 336° |
| 2026-04-25 22:34 | -8.24375 | 49.70045 | 31888 ft | 482 kts | 336° |
| 2026-04-25 22:35 | -8.18196 | 49.67355 | 31888 ft | 482 kts | 336° |
| 2026-04-25 22:35 | -8.12061 | 49.64685 | 31885 ft | 483 kts | 336° |
| 2026-04-25 22:36 | -8.05893 | 49.62001 | 31884 ft | 483 kts | 336° |
| 2026-04-25 22:36 | -7.99719 | 49.59316 | 31884 ft | 483 kts | 336° |
| 2026-04-25 22:37 | -7.93514 | 49.56618 | 31885 ft | 483 kts | 336° |
| 2026-04-25 22:37 | -7.87356 | 49.53941 | 31886 ft | 483 kts | 336° |
| 2026-04-25 22:38 | -7.81222 | 49.51276 | 31885 ft | 483 kts | 336° |
| 2026-04-25 22:38 | -7.75061 | 49.48600 | 31882 ft | 482 kts | 336° |
| 2026-04-25 22:39 | -7.68877 | 49.45914 | 31884 ft | 482 kts | 336° |
| 2026-04-25 22:39 | -7.62692 | 49.43230 | 31881 ft | 482 kts | 336° |
| 2026-04-25 22:40 | -7.56556 | 49.40566 | 31883 ft | 482 kts | 336° |
| 2026-04-25 22:40 | -7.50376 | 49.37886 | 31883 ft | 482 kts | 336° |
| 2026-04-25 22:41 | -7.44202 | 49.35208 | 31882 ft | 483 kts | 336° |
| 2026-04-25 22:41 | -7.38027 | 49.32531 | 31882 ft | 483 kts | 336° |
| 2026-04-25 22:42 | -7.31891 | 49.29871 | 31875 ft | 483 kts | 336° |
| 2026-04-25 22:42 | -7.25715 | 49.27195 | 31881 ft | 483 kts | 336° |
| 2026-04-25 22:43 | -7.19535 | 49.24518 | 31880 ft | 483 kts | 336° |
| 2026-04-25 22:43 | -7.13359 | 49.21844 | 31878 ft | 483 kts | 336° |
| 2026-04-25 22:44 | -7.07177 | 49.19167 | 31879 ft | 483 kts | 336° |
| 2026-04-25 22:44 | -7.01032 | 49.16508 | 31876 ft | 483 kts | 336° |
| 2026-04-25 22:45 | -6.94844 | 49.13831 | 31876 ft | 483 kts | 336° |
| 2026-04-25 22:45 | -6.88655 | 49.11154 | 31877 ft | 484 kts | 336° |
| 2026-04-25 22:46 | -6.82463 | 49.08476 | 31877 ft | 484 kts | 336° |
| 2026-04-25 22:46 | -6.76319 | 49.05820 | 31878 ft | 484 kts | 336° |
| 2026-04-25 22:47 | -6.70132 | 49.03147 | 31878 ft | 484 kts | 336° |
| 2026-04-25 22:47 | -6.63927 | 49.00466 | 31873 ft | 484 kts | 336° |
| 2026-04-25 22:48 | -6.57734 | 48.97791 | 31874 ft | 484 kts | 336° |
| 2026-04-25 22:48 | -6.51581 | 48.95134 | 31873 ft | 484 kts | 336° |
| 2026-04-25 22:49 | -6.45382 | 48.92458 | 31874 ft | 484 kts | 336° |
| 2026-04-25 22:49 | -6.39172 | 48.89778 | 31874 ft | 485 kts | 336° |
| 2026-04-25 22:50 | -6.32968 | 48.87101 | 31873 ft | 485 kts | 336° |
| 2026-04-25 22:50 | -6.26770 | 48.84427 | 31873 ft | 485 kts | 336° |
| 2026-04-25 22:51 | -6.20559 | 48.81749 | 31874 ft | 485 kts | 336° |
| 2026-04-25 22:51 | -6.14390 | 48.79089 | 31876 ft | 485 kts | 336° |
| 2026-04-25 22:52 | -6.08175 | 48.76410 | 31874 ft | 485 kts | 336° |
| 2026-04-25 22:52 | -6.03008 | 48.74184 | 31874 ft | 485 kts | 336° |
| 2026-04-25 22:53 | -5.95740 | 48.71053 | 31873 ft | 486 kts | 336° |
| 2026-04-25 22:53 | -5.89569 | 48.68395 | 31874 ft | 486 kts | 336° |
| 2026-04-25 22:54 | -5.83350 | 48.65717 | 31875 ft | 486 kts | 336° |
| 2026-04-25 22:54 | -5.77124 | 48.63037 | 31874 ft | 486 kts | 336° |
| 2026-04-25 22:55 | -5.70903 | 48.60359 | 31873 ft | 486 kts | 336° |
| 2026-04-25 22:55 | -5.64670 | 48.57677 | 31874 ft | 487 kts | 336° |
| 2026-04-25 22:56 | -5.58446 | 48.55000 | 31874 ft | 487 kts | 336° |
| 2026-04-25 22:56 | -5.52246 | 48.52333 | 31874 ft | 487 kts | 336° |
| 2026-04-25 22:57 | -5.46000 | 48.49647 | 31872 ft | 488 kts | 336° |
| 2026-04-25 22:57 | -5.39794 | 48.46979 | 31873 ft | 488 kts | 336° |
| 2026-04-25 22:58 | -5.33545 | 48.44294 | 31871 ft | 488 kts | 336° |
| 2026-04-25 22:58 | -5.27292 | 48.41607 | 31871 ft | 488 kts | 336° |
| 2026-04-25 22:59 | -5.21033 | 48.38918 | 31871 ft | 488 kts | 336° |
| 2026-04-25 22:59 | -5.14818 | 48.36249 | 31872 ft | 488 kts | 336° |
| 2026-04-25 23:00 | -5.08568 | 48.33565 | 31874 ft | 488 kts | 336° |
| 2026-04-25 23:00 | -5.02309 | 48.30878 | 31872 ft | 488 kts | 336° |
| 2026-04-25 23:01 | -4.96056 | 48.28194 | 31873 ft | 489 kts | 336° |
| 2026-04-25 23:01 | -4.89805 | 48.25511 | 31873 ft | 489 kts | 336° |
| 2026-04-25 23:02 | -4.83583 | 48.22841 | 31872 ft | 489 kts | 336° |
| 2026-04-25 23:02 | -4.78373 | 48.20606 | 31884 ft | 489 kts | 336° |
| 2026-04-25 23:03 | -4.72120 | 48.17925 | 31874 ft | 489 kts | 336° |
| 2026-04-25 23:03 | -4.65868 | 48.15243 | 31878 ft | 489 kts | 336° |
| 2026-04-25 23:04 | -4.59613 | 48.12561 | 31872 ft | 489 kts | 336° |
| 2026-04-25 23:04 | -4.53349 | 48.09877 | 31870 ft | 489 kts | 336° |
| 2026-04-25 23:05 | -4.47081 | 48.07190 | 31874 ft | 489 kts | 336° |
| 2026-04-25 23:05 | -4.40854 | 48.04522 | 31871 ft | 490 kts | 336° |
| 2026-04-25 23:06 | -4.34580 | 48.01834 | 31870 ft | 490 kts | 336° |
| 2026-04-25 23:06 | -4.28292 | 47.99141 | 31871 ft | 490 kts | 336° |
| 2026-04-25 23:07 | -4.22006 | 47.96448 | 31871 ft | 491 kts | 336° |
| 2026-04-25 23:07 | -4.15766 | 47.93777 | 31874 ft | 491 kts | 336° |
| 2026-04-25 23:08 | -4.09472 | 47.91082 | 31876 ft | 491 kts | 336° |
| 2026-04-25 23:08 | -4.03183 | 47.88390 | 31872 ft | 491 kts | 336° |
| 2026-04-25 23:09 | -3.96915 | 47.85708 | 31872 ft | 492 kts | 336° |
| 2026-04-25 23:09 | -3.90609 | 47.83009 | 31875 ft | 492 kts | 336° |
| 2026-04-25 23:10 | -3.84313 | 47.80316 | 31874 ft | 492 kts | 336° |
| 2026-04-25 23:10 | -3.78004 | 47.77617 | 31871 ft | 492 kts | 336° |
| 2026-04-25 23:11 | -3.71737 | 47.74937 | 31871 ft | 492 kts | 336° |
| 2026-04-25 23:11 | -3.65428 | 47.72239 | 31871 ft | 493 kts | 336° |
| 2026-04-25 23:12 | -3.59122 | 47.69543 | 31875 ft | 493 kts | 336° |
| 2026-04-25 23:12 | -3.52812 | 47.66845 | 31871 ft | 493 kts | 336° |
| 2026-04-25 23:13 | -3.46507 | 47.64150 | 31867 ft | 493 kts | 336° |
| 2026-04-25 23:13 | -3.40197 | 47.61453 | 31873 ft | 492 kts | 336° |
| 2026-04-25 23:14 | -3.33896 | 47.58761 | 31871 ft | 492 kts | 336° |
| 2026-04-25 23:14 | -3.27616 | 47.56077 | 31872 ft | 492 kts | 336° |
| 2026-04-25 23:15 | -3.21333 | 47.53393 | 31873 ft | 492 kts | 336° |
| 2026-04-25 23:15 | -3.15055 | 47.50711 | 31875 ft | 492 kts | 336° |
| 2026-04-25 23:16 | -3.08765 | 47.48024 | 31874 ft | 492 kts | 336° |
| 2026-04-25 23:16 | -3.02459 | 47.45331 | 31873 ft | 491 kts | 336° |
| 2026-04-25 23:17 | -2.96187 | 47.42625 | 31877 ft | 491 kts | 336° |
| 2026-04-25 23:17 | -2.89927 | 47.39894 | 31872 ft | 491 kts | 336° |
| 2026-04-25 23:18 | -2.83638 | 47.37151 | 31874 ft | 491 kts | 336° |
| 2026-04-25 23:18 | -2.77418 | 47.34442 | 31863 ft | 491 kts | 336° |
| 2026-04-25 23:19 | -2.71154 | 47.31718 | 31867 ft | 491 kts | 336° |
| 2026-04-25 23:19 | -2.64861 | 47.28981 | 31868 ft | 491 kts | 336° |
| 2026-04-25 23:20 | -2.58614 | 47.26265 | 31867 ft | 492 kts | 336° |
| 2026-04-25 23:20 | -2.52325 | 47.23530 | 31869 ft | 492 kts | 336° |
| 2026-04-25 23:21 | -2.46079 | 47.20815 | 31868 ft | 491 kts | 336° |
| 2026-04-25 23:21 | -2.39797 | 47.18083 | 31869 ft | 491 kts | 336° |
| 2026-04-25 23:22 | -2.33527 | 47.15358 | 31866 ft | 491 kts | 336° |
| 2026-04-25 23:23 | -2.24155 | 47.11285 | 31866 ft | 490 kts | 336° |
| 2026-04-25 23:23 | -2.17894 | 47.08564 | 31870 ft | 490 kts | 336° |
| 2026-04-25 23:24 | -2.11641 | 47.05847 | 31866 ft | 489 kts | 337° |
| 2026-04-25 23:24 | -2.05394 | 47.03132 | 31871 ft | 489 kts | 337° |
| 2026-04-25 23:25 | -1.99187 | 47.00435 | 31870 ft | 489 kts | 337° |
| 2026-04-25 23:25 | -1.92940 | 46.97722 | 31866 ft | 489 kts | 337° |
| 2026-04-25 23:26 | -1.86694 | 46.95008 | 31870 ft | 489 kts | 337° |
| 2026-04-25 23:26 | -1.80480 | 46.92309 | 31867 ft | 489 kts | 337° |
| 2026-04-25 23:27 | -1.74228 | 46.89594 | 31868 ft | 489 kts | 337° |
| 2026-04-25 23:27 | -1.67973 | 46.86877 | 31869 ft | 489 kts | 337° |
| 2026-04-25 23:28 | -1.61744 | 46.84172 | 31871 ft | 489 kts | 337° |
| 2026-04-25 23:28 | -1.55498 | 46.81460 | 31866 ft | 489 kts | 337° |
| 2026-04-25 23:29 | -1.49300 | 46.78769 | 31870 ft | 489 kts | 337° |
| 2026-04-25 23:29 | -1.43061 | 46.76060 | 31869 ft | 488 kts | 337° |
| 2026-04-25 23:30 | -1.36818 | 46.73350 | 31869 ft | 488 kts | 337° |
| 2026-04-25 23:30 | -1.30577 | 46.70640 | 31871 ft | 488 kts | 338° |
| 2026-04-25 23:31 | -1.24382 | 46.67951 | 31869 ft | 488 kts | 338° |
| 2026-04-25 23:31 | -1.18146 | 46.65244 | 31862 ft | 488 kts | 338° |
| 2026-04-25 23:32 | -1.11914 | 46.62539 | 31864 ft | 487 kts | 338° |
| 2026-04-25 23:32 | -1.05720 | 46.59850 | 31869 ft | 487 kts | 338° |
| 2026-04-25 23:33 | -0.99496 | 46.57149 | 31865 ft | 487 kts | 338° |
| 2026-04-25 23:33 | -0.93270 | 46.54447 | 31869 ft | 488 kts | 338° |
| 2026-04-25 23:34 | -0.87074 | 46.51758 | 31864 ft | 488 kts | 338° |
| 2026-04-25 23:34 | -0.80840 | 46.49053 | 31865 ft | 488 kts | 338° |
| 2026-04-25 23:35 | -0.74606 | 46.46347 | 31865 ft | 488 kts | 338° |
| 2026-04-25 23:35 | -0.68370 | 46.43641 | 31866 ft | 488 kts | 338° |
| 2026-04-25 23:36 | -0.62138 | 46.40937 | 31866 ft | 488 kts | 338° |
| 2026-04-25 23:36 | -0.55937 | 46.38246 | 31863 ft | 488 kts | 338° |
| 2026-04-25 23:37 | -0.49695 | 46.35538 | 31864 ft | 489 kts | 338° |
| 2026-04-25 23:37 | -0.43457 | 46.32831 | 31864 ft | 489 kts | 338° |
| 2026-04-25 23:38 | -0.37207 | 46.30119 | 31864 ft | 489 kts | 338° |
| 2026-04-25 23:38 | -0.30958 | 46.27407 | 31861 ft | 489 kts | 338° |
| 2026-04-25 23:39 | -0.24714 | 46.24698 | 31861 ft | 489 kts | 338° |
| 2026-04-25 23:39 | -0.18503 | 46.22004 | 31863 ft | 490 kts | 338° |
| 2026-04-25 23:40 | -0.12247 | 46.19289 | 31862 ft | 490 kts | 338° |
| 2026-04-25 23:40 | -0.06003 | 46.16580 | 31864 ft | 490 kts | 338° |
| 2026-04-25 23:41 | 0.00251 | 46.13867 | 31867 ft | 490 kts | 338° |
| 2026-04-25 23:41 | 0.06525 | 46.11145 | 31862 ft | 490 kts | 338° |
| 2026-04-25 23:42 | 0.12798 | 46.08423 | 31862 ft | 491 kts | 338° |
| 2026-04-25 23:42 | 0.19049 | 46.05710 | 31863 ft | 491 kts | 338° |
| 2026-04-25 23:43 | 0.25312 | 46.02993 | 31866 ft | 491 kts | 338° |
| 2026-04-25 23:43 | 0.31551 | 46.00286 | 31864 ft | 491 kts | 338° |
| 2026-04-25 23:44 | 0.37812 | 45.97569 | 31862 ft | 491 kts | 338° |
| 2026-04-25 23:44 | 0.44077 | 45.94851 | 31866 ft | 491 kts | 338° |
| 2026-04-25 23:45 | 0.50361 | 45.92124 | 31867 ft | 491 kts | 338° |
| 2026-04-25 23:45 | 0.56621 | 45.89408 | 31865 ft | 491 kts | 338° |
| 2026-04-25 23:46 | 0.62885 | 45.86689 | 31866 ft | 491 kts | 338° |
| 2026-04-25 23:46 | 0.69155 | 45.83969 | 31868 ft | 491 kts | 338° |
| 2026-04-25 23:47 | 0.75405 | 45.81257 | 31868 ft | 490 kts | 338° |
| 2026-04-25 23:47 | 0.81667 | 45.78539 | 31863 ft | 490 kts | 338° |
| 2026-04-25 23:48 | 0.87910 | 45.75830 | 31864 ft | 490 kts | 338° |
| 2026-04-25 23:48 | 0.94171 | 45.73113 | 31864 ft | 490 kts | 338° |
| 2026-04-25 23:49 | 1.00421 | 45.70400 | 31867 ft | 489 kts | 338° |
| 2026-04-25 23:49 | 1.06651 | 45.67696 | 31864 ft | 489 kts | 338° |
| 2026-04-25 23:50 | 1.12897 | 45.64985 | 31864 ft | 489 kts | 338° |
| 2026-04-25 23:50 | 1.19148 | 45.62271 | 31863 ft | 489 kts | 338° |
| 2026-04-25 23:51 | 1.25379 | 45.59567 | 31867 ft | 489 kts | 338° |
| 2026-04-25 23:51 | 1.30568 | 45.57314 | 31869 ft | 489 kts | 338° |
| 2026-04-25 23:52 | 1.36809 | 45.54604 | 31868 ft | 489 kts | 338° |
| 2026-04-25 23:52 | 1.43026 | 45.51905 | 31866 ft | 489 kts | 338° |
| 2026-04-25 23:53 | 1.49274 | 45.49193 | 31866 ft | 488 kts | 338° |
| 2026-04-25 23:53 | 1.55517 | 45.46481 | 31869 ft | 489 kts | 338° |
| 2026-04-25 23:54 | 1.61741 | 45.43779 | 31870 ft | 489 kts | 338° |
| 2026-04-25 23:54 | 1.67980 | 45.41069 | 31870 ft | 489 kts | 338° |
| 2026-04-25 23:55 | 1.74201 | 45.38368 | 31864 ft | 489 kts | 338° |
| 2026-04-25 23:55 | 1.80440 | 45.35658 | 31871 ft | 490 kts | 338° |
| 2026-04-25 23:56 | 1.86723 | 45.32929 | 31878 ft | 490 kts | 338° |
| 2026-04-25 23:56 | 1.92959 | 45.30220 | 31879 ft | 491 kts | 338° |
| 2026-04-25 23:57 | 1.99227 | 45.27497 | 31882 ft | 491 kts | 338° |
| 2026-04-25 23:57 | 2.05493 | 45.24774 | 31879 ft | 491 kts | 338° |
| 2026-04-25 23:58 | 2.11761 | 45.22051 | 31885 ft | 491 kts | 338° |
| 2026-04-25 23:58 | 2.17994 | 45.19342 | 31882 ft | 491 kts | 338° |
| 2026-04-25 23:59 | 2.24265 | 45.16617 | 31882 ft | 490 kts | 338° |
| 2026-04-25 23:59 | 2.30534 | 45.13892 | 31889 ft | 490 kts | 338° |
| 2026-04-26 00:00 | 2.36747 | 45.11192 | 31891 ft | 490 kts | 338° |
| 2026-04-26 00:00 | 2.43007 | 45.08471 | 31885 ft | 489 kts | 338° |
| 2026-04-26 00:01 | 2.49252 | 45.05756 | 31888 ft | 489 kts | 338° |
| 2026-04-26 00:01 | 2.55451 | 45.03060 | 31892 ft | 489 kts | 338° |
| 2026-04-26 00:02 | 2.61691 | 45.00347 | 31893 ft | 488 kts | 338° |
| 2026-04-26 00:02 | 2.67931 | 44.97633 | 31888 ft | 488 kts | 338° |
| 2026-04-26 00:03 | 2.74144 | 44.94931 | 31893 ft | 488 kts | 338° |
| 2026-04-26 00:03 | 2.80395 | 44.92212 | 31895 ft | 488 kts | 338° |
| 2026-04-26 00:04 | 2.86615 | 44.89506 | 31897 ft | 488 kts | 338° |
| 2026-04-26 00:04 | 2.92808 | 44.86811 | 31895 ft | 488 kts | 338° |
| 2026-04-26 00:05 | 2.99069 | 44.84087 | 31896 ft | 488 kts | 338° |
| 2026-04-26 00:05 | 3.05271 | 44.81388 | 31898 ft | 488 kts | 338° |
| 2026-04-26 00:06 | 3.11500 | 44.78676 | 31892 ft | 488 kts | 338° |
| 2026-04-26 00:06 | 3.17747 | 44.75957 | 31899 ft | 488 kts | 338° |
| 2026-04-26 00:07 | 3.23962 | 44.73251 | 31901 ft | 488 kts | 338° |
| 2026-04-26 00:07 | 3.30177 | 44.70545 | 31906 ft | 488 kts | 338° |
| 2026-04-26 00:08 | 3.36394 | 44.67837 | 31907 ft | 488 kts | 338° |
| 2026-04-26 00:08 | 3.42618 | 44.65127 | 31913 ft | 488 kts | 338° |
| 2026-04-26 00:09 | 3.48839 | 44.62417 | 31910 ft | 488 kts | 338° |
| 2026-04-26 00:09 | 3.55108 | 44.59686 | 31909 ft | 488 kts | 338° |
| 2026-04-26 00:10 | 3.61316 | 44.56980 | 31915 ft | 488 kts | 338° |
| 2026-04-26 00:10 | 3.67547 | 44.54265 | 31918 ft | 488 kts | 338° |
| 2026-04-26 00:11 | 3.73783 | 44.51547 | 31916 ft | 488 kts | 338° |
| 2026-04-26 00:11 | 3.80014 | 44.48830 | 31919 ft | 488 kts | 338° |
| 2026-04-26 00:12 | 3.86233 | 44.46119 | 31922 ft | 489 kts | 338° |
| 2026-04-26 00:12 | 3.92446 | 44.43410 | 31918 ft | 489 kts | 338° |
| 2026-04-26 00:13 | 3.98681 | 44.40690 | 31919 ft | 489 kts | 338° |
| 2026-04-26 00:13 | 4.04903 | 44.37976 | 31921 ft | 489 kts | 338° |
| 2026-04-26 00:14 | 4.11179 | 44.35238 | 31925 ft | 489 kts | 338° |
| 2026-04-26 00:14 | 4.17409 | 44.32519 | 31928 ft | 489 kts | 338° |
| 2026-04-26 00:15 | 4.23614 | 44.29811 | 31921 ft | 489 kts | 338° |
| 2026-04-26 00:15 | 4.29885 | 44.27074 | 31924 ft | 489 kts | 338° |
| 2026-04-26 00:16 | 4.36116 | 44.24353 | 31929 ft | 489 kts | 338° |
| 2026-04-26 00:16 | 4.42353 | 44.21629 | 31928 ft | 489 kts | 338° |
| 2026-04-26 00:17 | 4.48580 | 44.18909 | 31930 ft | 489 kts | 338° |
| 2026-04-26 00:17 | 4.54842 | 44.16174 | 31927 ft | 489 kts | 338° |
| 2026-04-26 00:18 | 4.61039 | 44.13466 | 31929 ft | 489 kts | 338° |
| 2026-04-26 00:18 | 4.67302 | 44.10729 | 31929 ft | 490 kts | 338° |
| 2026-04-26 00:19 | 4.73537 | 44.08004 | 31924 ft | 490 kts | 338° |
| 2026-04-26 00:19 | 4.79809 | 44.05261 | 31923 ft | 490 kts | 337° |
| 2026-04-26 00:20 | 4.86051 | 44.02531 | 31924 ft | 490 kts | 337° |
| 2026-04-26 00:20 | 4.92274 | 43.99808 | 31918 ft | 490 kts | 337° |
| 2026-04-26 00:21 | 4.98499 | 43.96953 | 31915 ft | 490 kts | 336° |
| 2026-04-26 00:21 | 5.04627 | 43.94060 | 31912 ft | 490 kts | 336° |
| 2026-04-26 00:22 | 5.10803 | 43.91150 | 31910 ft | 490 kts | 336° |
| 2026-04-26 00:22 | 5.16964 | 43.88264 | 31909 ft | 490 kts | 336° |
| 2026-04-26 00:23 | 5.23173 | 43.85363 | 31908 ft | 490 kts | 336° |
| 2026-04-26 00:23 | 5.29340 | 43.82481 | 31909 ft | 490 kts | 336° |
| 2026-04-26 00:24 | 5.35508 | 43.79598 | 31909 ft | 490 kts | 336° |
| 2026-04-26 00:24 | 5.41699 | 43.76703 | 31909 ft | 490 kts | 336° |
| 2026-04-26 00:25 | 5.47861 | 43.73820 | 31908 ft | 490 kts | 336° |
| 2026-04-26 00:25 | 5.54037 | 43.70931 | 31905 ft | 490 kts | 336° |
| 2026-04-26 00:26 | 5.60206 | 43.68043 | 31902 ft | 491 kts | 336° |
| 2026-04-26 00:26 | 5.66422 | 43.65134 | 31904 ft | 491 kts | 336° |
| 2026-04-26 00:27 | 5.72616 | 43.62233 | 31904 ft | 491 kts | 336° |
| 2026-04-26 00:27 | 5.78787 | 43.59344 | 31902 ft | 491 kts | 336° |
| 2026-04-26 00:28 | 5.84959 | 43.56452 | 31902 ft | 491 kts | 336° |
| 2026-04-26 00:28 | 5.91151 | 43.53551 | 31903 ft | 491 kts | 336° |
| 2026-04-26 00:29 | 5.97362 | 43.50640 | 31899 ft | 491 kts | 336° |
| 2026-04-26 00:29 | 6.03533 | 43.47747 | 31898 ft | 491 kts | 336° |
| 2026-04-26 00:30 | 6.09722 | 43.44845 | 31900 ft | 491 kts | 336° |
| 2026-04-26 00:30 | 6.15897 | 43.41949 | 31902 ft | 491 kts | 336° |
| 2026-04-26 00:31 | 6.22086 | 43.39045 | 31903 ft | 491 kts | 336° |
| 2026-04-26 00:31 | 6.28293 | 43.36132 | 31902 ft | 491 kts | 336° |
| 2026-04-26 00:32 | 6.34482 | 43.33228 | 31904 ft | 491 kts | 336° |
| 2026-04-26 00:32 | 6.43803 | 43.28851 | 31911 ft | 492 kts | 336° |
| 2026-04-26 00:33 | 6.49984 | 43.25947 | 31907 ft | 492 kts | 336° |
| 2026-04-26 00:33 | 6.56185 | 43.23034 | 31912 ft | 491 kts | 336° |
| 2026-04-26 00:34 | 6.62366 | 43.20129 | 31918 ft | 491 kts | 336° |
| 2026-04-26 00:34 | 6.68567 | 43.17214 | 31916 ft | 491 kts | 336° |
| 2026-04-26 00:35 | 6.74755 | 43.14304 | 31920 ft | 491 kts | 336° |
| 2026-04-26 00:35 | 6.80919 | 43.11405 | 31923 ft | 491 kts | 336° |
| 2026-04-26 00:36 | 6.87127 | 43.08484 | 31927 ft | 491 kts | 336° |
| 2026-04-26 00:36 | 6.93330 | 43.05565 | 31929 ft | 491 kts | 336° |
| 2026-04-26 00:37 | 6.99484 | 43.02667 | 31937 ft | 491 kts | 336° |
| 2026-04-26 00:37 | 7.05682 | 42.99749 | 31935 ft | 491 kts | 336° |
| 2026-04-26 00:38 | 7.10818 | 42.97330 | 31938 ft | 491 kts | 336° |
| 2026-04-26 00:38 | 7.17016 | 42.94409 | 31942 ft | 490 kts | 336° |
| 2026-04-26 00:39 | 7.24200 | 42.91023 | 31948 ft | 490 kts | 336° |
| 2026-04-26 00:39 | 7.29384 | 42.88579 | 31952 ft | 490 kts | 336° |
| 2026-04-26 00:40 | 7.35563 | 42.85665 | 31951 ft | 490 kts | 336° |
| 2026-04-26 00:40 | 7.41720 | 42.82761 | 31955 ft | 490 kts | 336° |
| 2026-04-26 00:41 | 7.47917 | 42.79836 | 31953 ft | 490 kts | 336° |
| 2026-04-26 00:41 | 7.54087 | 42.76924 | 31953 ft | 490 kts | 336° |
| 2026-04-26 00:42 | 7.60265 | 42.74007 | 31954 ft | 490 kts | 336° |
| 2026-04-26 00:42 | 7.66405 | 42.71107 | 31955 ft | 490 kts | 336° |
| 2026-04-26 00:43 | 7.72603 | 42.68178 | 31954 ft | 490 kts | 336° |
| 2026-04-26 00:43 | 7.78766 | 42.65265 | 31957 ft | 490 kts | 336° |
| 2026-04-26 00:44 | 7.84959 | 42.62337 | 31957 ft | 490 kts | 336° |
| 2026-04-26 00:44 | 7.91118 | 42.59424 | 31960 ft | 489 kts | 336° |
| 2026-04-26 00:45 | 7.97264 | 42.56516 | 31967 ft | 489 kts | 336° |
| 2026-04-26 00:45 | 8.03439 | 42.53594 | 31966 ft | 488 kts | 336° |
| 2026-04-26 00:46 | 8.09557 | 42.50698 | 31972 ft | 488 kts | 336° |
| 2026-04-26 00:46 | 8.15705 | 42.47786 | 31974 ft | 487 kts | 336° |
| 2026-04-26 00:47 | 8.21853 | 42.44873 | 31976 ft | 487 kts | 335° |
| 2026-04-26 00:47 | 8.27995 | 42.41962 | 31982 ft | 487 kts | 335° |
| 2026-04-26 00:48 | 8.34107 | 42.39065 | 31983 ft | 487 kts | 335° |
| 2026-04-26 00:48 | 8.40245 | 42.36154 | 31990 ft | 488 kts | 335° |
| 2026-04-26 00:49 | 8.46407 | 42.33231 | 31995 ft | 488 kts | 335° |
| 2026-04-26 00:49 | 8.52557 | 42.30312 | 31996 ft | 488 kts | 335° |
| 2026-04-26 00:50 | 8.58680 | 42.27405 | 31999 ft | 488 kts | 335° |
| 2026-04-26 00:50 | 8.64853 | 42.24473 | 32002 ft | 488 kts | 335° |
| 2026-04-26 00:51 | 8.70995 | 42.21556 | 32007 ft | 488 kts | 335° |
| 2026-04-26 00:51 | 8.77149 | 42.18631 | 32008 ft | 488 kts | 335° |
| 2026-04-26 00:52 | 8.83274 | 42.15719 | 32012 ft | 488 kts | 335° |
| 2026-04-26 00:52 | 8.89439 | 42.12787 | 32022 ft | 488 kts | 335° |
| 2026-04-26 00:53 | 8.95585 | 42.09862 | 32024 ft | 488 kts | 335° |
| 2026-04-26 00:53 | 9.01687 | 42.06958 | 32029 ft | 488 kts | 335° |
| 2026-04-26 00:54 | 9.07843 | 42.04027 | 32039 ft | 488 kts | 335° |
| 2026-04-26 00:54 | 9.13992 | 42.01098 | 32044 ft | 488 kts | 335° |
| 2026-04-26 00:55 | 9.20105 | 41.98185 | 32049 ft | 488 kts | 335° |
| 2026-04-26 00:55 | 9.26259 | 41.95251 | 32048 ft | 488 kts | 335° |
| 2026-04-26 00:56 | 9.32421 | 41.92313 | 32032 ft | 489 kts | 335° |
| 2026-04-26 00:56 | 9.38576 | 41.89376 | 32033 ft | 489 kts | 335° |
| 2026-04-26 00:57 | 9.44724 | 41.86442 | 32025 ft | 489 kts | 335° |
| 2026-04-26 00:57 | 9.50841 | 41.83522 | 32004 ft | 489 kts | 335° |
| 2026-04-26 00:58 | 9.56997 | 41.80581 | 31996 ft | 489 kts | 335° |
| 2026-04-26 00:58 | 9.63153 | 41.77640 | 31981 ft | 488 kts | 335° |
| 2026-04-26 00:59 | 9.69297 | 41.74703 | 31971 ft | 488 kts | 335° |
| 2026-04-26 00:59 | 9.75439 | 41.71766 | 31952 ft | 487 kts | 335° |
| 2026-04-26 01:00 | 9.81540 | 41.68847 | 31941 ft | 487 kts | 335° |
| 2026-04-26 01:00 | 9.87666 | 41.65915 | 31937 ft | 487 kts | 335° |
| 2026-04-26 01:01 | 9.93790 | 41.62983 | 31933 ft | 486 kts | 335° |
| 2026-04-26 01:01 | 9.99899 | 41.60057 | 31923 ft | 486 kts | 335° |
| 2026-04-26 01:02 | 10.06021 | 41.57123 | 31928 ft | 486 kts | 335° |
| 2026-04-26 01:02 | 10.12144 | 41.54187 | 31923 ft | 486 kts | 335° |
| 2026-04-26 01:03 | 10.18263 | 41.51253 | 31932 ft | 486 kts | 335° |
| 2026-04-26 01:03 | 10.24384 | 41.48316 | 31930 ft | 487 kts | 335° |
| 2026-04-26 01:04 | 10.30520 | 41.45370 | 31930 ft | 487 kts | 335° |
| 2026-04-26 01:04 | 10.36646 | 41.42428 | 31927 ft | 487 kts | 335° |
| 2026-04-26 01:05 | 10.42731 | 41.39505 | 31923 ft | 487 kts | 335° |
| 2026-04-26 01:05 | 10.48854 | 41.36562 | 31922 ft | 486 kts | 335° |
| 2026-04-26 01:06 | 10.54983 | 41.33615 | 31926 ft | 486 kts | 335° |
| 2026-04-26 01:06 | 10.61105 | 41.30670 | 31925 ft | 486 kts | 335° |
| 2026-04-26 01:07 | 10.67222 | 41.27726 | 31925 ft | 486 kts | 335° |
| 2026-04-26 01:07 | 10.73346 | 41.24777 | 31920 ft | 486 kts | 335° |
| 2026-04-26 01:08 | 10.79424 | 41.21849 | 31920 ft | 486 kts | 335° |
| 2026-04-26 01:08 | 10.85542 | 41.18901 | 31915 ft | 486 kts | 335° |
| 2026-04-26 01:09 | 10.91669 | 41.15946 | 31913 ft | 487 kts | 335° |
| 2026-04-26 01:09 | 10.97789 | 41.12994 | 31915 ft | 487 kts | 335° |
| 2026-04-26 01:10 | 11.03885 | 41.10052 | 31915 ft | 487 kts | 335° |
| 2026-04-26 01:10 | 11.10024 | 41.07088 | 31912 ft | 487 kts | 335° |
| 2026-04-26 01:11 | 11.16162 | 41.04123 | 31910 ft | 488 kts | 335° |
| 2026-04-26 01:11 | 11.22302 | 41.01156 | 31909 ft | 488 kts | 335° |
| 2026-04-26 01:12 | 11.28402 | 40.98206 | 31912 ft | 488 kts | 335° |
| 2026-04-26 01:12 | 11.34551 | 40.95232 | 31907 ft | 489 kts | 335° |
| 2026-04-26 01:13 | 11.40698 | 40.92257 | 31912 ft | 489 kts | 335° |
| 2026-04-26 01:13 | 11.46849 | 40.89279 | 31907 ft | 489 kts | 335° |
| 2026-04-26 01:14 | 11.52963 | 40.86317 | 31908 ft | 489 kts | 335° |
| 2026-04-26 01:14 | 11.59113 | 40.83337 | 31906 ft | 489 kts | 335° |
| 2026-04-26 01:15 | 11.65260 | 40.80355 | 31912 ft | 489 kts | 335° |
| 2026-04-26 01:15 | 11.71367 | 40.77393 | 31909 ft | 488 kts | 335° |
| 2026-04-26 01:16 | 11.77508 | 40.74412 | 31908 ft | 488 kts | 335° |
| 2026-04-26 01:16 | 11.83646 | 40.71432 | 31913 ft | 488 kts | 335° |
| 2026-04-26 01:17 | 11.89785 | 40.68449 | 31914 ft | 488 kts | 335° |
| 2026-04-26 01:17 | 11.95925 | 40.65464 | 31910 ft | 488 kts | 335° |
| 2026-04-26 01:18 | 12.02064 | 40.62478 | 31913 ft | 488 kts | 335° |
| 2026-04-26 01:18 | 12.08200 | 40.59492 | 31908 ft | 488 kts | 335° |
| 2026-04-26 01:19 | 12.14296 | 40.56524 | 31912 ft | 488 kts | 335° |
| 2026-04-26 01:19 | 12.20429 | 40.53536 | 31901 ft | 488 kts | 335° |
| 2026-04-26 01:20 | 12.26555 | 40.50550 | 31902 ft | 487 kts | 335° |
| 2026-04-26 01:20 | 12.32674 | 40.47566 | 31902 ft | 486 kts | 335° |
| 2026-04-26 01:21 | 12.38752 | 40.44600 | 31891 ft | 486 kts | 335° |
| 2026-04-26 01:21 | 12.44988 | 40.41926 | 31892 ft | 485 kts | 343° |
| 2026-04-26 01:22 | 12.51553 | 40.40383 | 31878 ft | 484 kts | 352° |
| 2026-04-26 01:22 | 12.58195 | 40.39521 | 31888 ft | 484 kts | 353° |
| 2026-04-26 01:23 | 12.64893 | 40.38679 | 31880 ft | 485 kts | 352° |
| 2026-04-26 01:23 | 12.71593 | 40.37810 | 31880 ft | 485 kts | 352° |
| 2026-04-26 01:24 | 12.78266 | 40.36924 | 31877 ft | 486 kts | 352° |
| 2026-04-26 01:24 | 12.84978 | 40.36026 | 31875 ft | 486 kts | 352° |
| 2026-04-26 01:25 | 12.91706 | 40.35126 | 31873 ft | 486 kts | 352° |
| 2026-04-26 01:25 | 12.97293 | 40.34379 | 31869 ft | 487 kts | 352° |
| 2026-04-26 01:26 | 13.04018 | 40.33480 | 31868 ft | 487 kts | 352° |
| 2026-04-26 01:26 | 13.10749 | 40.32580 | 31861 ft | 488 kts | 352° |
| 2026-04-26 01:27 | 13.17492 | 40.31677 | 31865 ft | 488 kts | 352° |
| 2026-04-26 01:27 | 13.24236 | 40.30774 | 31855 ft | 489 kts | 352° |
| 2026-04-26 01:28 | 13.30945 | 40.29876 | 31853 ft | 489 kts | 352° |
| 2026-04-26 01:28 | 13.37692 | 40.28971 | 31851 ft | 489 kts | 352° |
| 2026-04-26 01:29 | 13.44404 | 40.28071 | 31844 ft | 489 kts | 352° |
| 2026-04-26 01:29 | 13.51165 | 40.27164 | 31843 ft | 488 kts | 352° |
| 2026-04-26 01:30 | 13.57904 | 40.26259 | 31845 ft | 488 kts | 352° |
| 2026-04-26 01:30 | 13.64609 | 40.25358 | 31841 ft | 488 kts | 352° |
| 2026-04-26 01:31 | 13.71357 | 40.24451 | 31843 ft | 488 kts | 352° |
| 2026-04-26 01:31 | 13.78100 | 40.23545 | 31839 ft | 488 kts | 352° |
| 2026-04-26 01:32 | 13.84799 | 40.22643 | 31842 ft | 488 kts | 351° |
| 2026-04-26 01:32 | 13.91534 | 40.21736 | 31840 ft | 488 kts | 351° |
| 2026-04-26 01:33 | 13.98274 | 40.20828 | 31842 ft | 488 kts | 351° |
| 2026-04-26 01:33 | 14.05021 | 40.19918 | 31840 ft | 488 kts | 351° |
| 2026-04-26 01:34 | 14.11766 | 40.19008 | 31844 ft | 489 kts | 351° |
| 2026-04-26 01:34 | 14.18522 | 40.18096 | 31838 ft | 489 kts | 351° |
| 2026-04-26 01:35 | 14.25235 | 40.17189 | 31841 ft | 490 kts | 351° |
| 2026-04-26 01:35 | 14.31995 | 40.16276 | 31836 ft | 490 kts | 351° |
| 2026-04-26 01:36 | 14.38763 | 40.15361 | 31835 ft | 490 kts | 351° |
| 2026-04-26 01:37 | 14.48889 | 40.13991 | 31828 ft | 491 kts | 351° |
| 2026-04-26 01:37 | 14.55669 | 40.13073 | 31826 ft | 491 kts | 351° |
| 2026-04-26 01:38 | 14.62457 | 40.12153 | 31823 ft | 491 kts | 351° |
| 2026-04-26 01:38 | 14.69248 | 40.11232 | 31819 ft | 492 kts | 351° |
| 2026-04-26 01:39 | 14.75992 | 40.10317 | 31819 ft | 492 kts | 351° |
| 2026-04-26 01:39 | 14.82807 | 40.09392 | 31817 ft | 492 kts | 351° |
| 2026-04-26 01:40 | 14.89552 | 40.08475 | 31813 ft | 491 kts | 351° |
| 2026-04-26 01:40 | 14.96344 | 40.07552 | 31811 ft | 491 kts | 351° |
| 2026-04-26 01:41 | 15.03130 | 40.06629 | 31815 ft | 491 kts | 351° |
| 2026-04-26 01:41 | 15.09910 | 40.05706 | 31808 ft | 491 kts | 351° |
| 2026-04-26 01:42 | 15.16689 | 40.04783 | 31811 ft | 491 kts | 351° |
| 2026-04-26 01:42 | 15.23464 | 40.03860 | 31808 ft | 491 kts | 351° |
| 2026-04-26 01:43 | 15.30197 | 40.02942 | 31809 ft | 491 kts | 351° |
| 2026-04-26 01:43 | 15.36979 | 40.02016 | 31809 ft | 491 kts | 351° |
| 2026-04-26 01:44 | 15.43752 | 40.01091 | 31809 ft | 491 kts | 351° |
| 2026-04-26 01:44 | 15.50526 | 40.00166 | 31807 ft | 491 kts | 350° |
| 2026-04-26 01:45 | 15.57318 | 39.99237 | 31805 ft | 491 kts | 350° |
| 2026-04-26 01:45 | 15.64057 | 39.98315 | 31813 ft | 491 kts | 350° |
| 2026-04-26 01:46 | 15.70836 | 39.97387 | 31810 ft | 491 kts | 350° |
| 2026-04-26 01:46 | 15.77623 | 39.96457 | 31810 ft | 491 kts | 350° |
| 2026-04-26 01:47 | 15.84418 | 39.95525 | 31812 ft | 491 kts | 350° |
| 2026-04-26 01:47 | 15.91162 | 39.94600 | 31809 ft | 491 kts | 350° |
| 2026-04-26 01:48 | 15.97955 | 39.93667 | 31815 ft | 491 kts | 350° |
| 2026-04-26 01:48 | 16.04698 | 39.92741 | 31813 ft | 491 kts | 350° |
| 2026-04-26 01:49 | 16.11491 | 39.91807 | 31816 ft | 491 kts | 350° |
| 2026-04-26 01:49 | 16.18271 | 39.90874 | 31814 ft | 491 kts | 350° |
| 2026-04-26 01:50 | 16.25066 | 39.89939 | 31822 ft | 491 kts | 350° |
| 2026-04-26 01:50 | 16.31802 | 39.89011 | 31820 ft | 492 kts | 350° |
| 2026-04-26 01:51 | 16.38596 | 39.88074 | 31823 ft | 492 kts | 350° |
| 2026-04-26 01:51 | 16.45397 | 39.87136 | 31821 ft | 492 kts | 350° |
| 2026-04-26 01:52 | 16.52156 | 39.86203 | 31824 ft | 492 kts | 350° |
| 2026-04-26 01:52 | 16.58967 | 39.85262 | 31825 ft | 492 kts | 350° |
| 2026-04-26 01:53 | 16.65755 | 39.84324 | 31826 ft | 492 kts | 350° |
| 2026-04-26 01:53 | 16.72538 | 39.83385 | 31824 ft | 492 kts | 350° |
| 2026-04-26 01:54 | 16.79315 | 39.82447 | 31824 ft | 492 kts | 350° |
| 2026-04-26 01:54 | 16.86069 | 39.81511 | 31828 ft | 492 kts | 349° |
| 2026-04-26 01:55 | 16.92878 | 39.80567 | 31832 ft | 492 kts | 349° |
| 2026-04-26 01:55 | 16.99638 | 39.79629 | 31835 ft | 492 kts | 349° |
| 2026-04-26 01:56 | 17.06454 | 39.78683 | 31836 ft | 492 kts | 349° |
| 2026-04-26 01:56 | 17.13212 | 39.77744 | 31833 ft | 492 kts | 349° |
| 2026-04-26 01:57 | 17.19976 | 39.76804 | 31833 ft | 492 kts | 349° |
| 2026-04-26 01:57 | 17.26776 | 39.75857 | 31835 ft | 492 kts | 349° |
| 2026-04-26 01:58 | 17.33582 | 39.74909 | 31839 ft | 492 kts | 349° |
| 2026-04-26 01:58 | 17.40349 | 39.73966 | 31840 ft | 492 kts | 349° |
| 2026-04-26 01:59 | 17.47160 | 39.73017 | 31840 ft | 492 kts | 349° |
| 2026-04-26 01:59 | 17.53920 | 39.72073 | 31842 ft | 492 kts | 349° |
| 2026-04-26 02:00 | 17.60694 | 39.71127 | 31842 ft | 492 kts | 349° |
| 2026-04-26 02:00 | 17.67525 | 39.70172 | 31842 ft | 492 kts | 349° |
| 2026-04-26 02:01 | 17.74277 | 39.69228 | 31840 ft | 492 kts | 349° |
| 2026-04-26 02:01 | 17.81068 | 39.68277 | 31845 ft | 492 kts | 349° |
| 2026-04-26 02:02 | 17.87854 | 39.67326 | 31845 ft | 492 kts | 349° |
| 2026-04-26 02:02 | 17.94655 | 39.66372 | 31843 ft | 492 kts | 349° |
| 2026-04-26 02:03 | 18.01422 | 39.65423 | 31844 ft | 492 kts | 349° |
| 2026-04-26 02:03 | 18.08212 | 39.64469 | 31847 ft | 492 kts | 348° |
| 2026-04-26 02:04 | 18.15011 | 39.63514 | 31856 ft | 493 kts | 348° |
| 2026-04-26 02:04 | 18.21795 | 39.62560 | 31853 ft | 493 kts | 348° |
| 2026-04-26 02:05 | 18.28641 | 39.61596 | 31854 ft | 493 kts | 348° |
| 2026-04-26 02:05 | 18.35418 | 39.60641 | 31854 ft | 493 kts | 348° |
| 2026-04-26 02:06 | 18.42206 | 39.59684 | 31853 ft | 493 kts | 348° |
| 2026-04-26 02:06 | 18.49044 | 39.58720 | 31856 ft | 493 kts | 348° |
| 2026-04-26 02:07 | 18.55811 | 39.57764 | 31853 ft | 493 kts | 348° |
| 2026-04-26 02:07 | 18.62620 | 39.56802 | 31856 ft | 493 kts | 348° |
| 2026-04-26 02:08 | 18.69450 | 39.55836 | 31860 ft | 493 kts | 348° |
| 2026-04-26 02:08 | 18.76224 | 39.54877 | 31856 ft | 493 kts | 348° |
| 2026-04-26 02:09 | 18.83041 | 39.53911 | 31860 ft | 493 kts | 348° |
| 2026-04-26 02:09 | 18.89849 | 39.52946 | 31861 ft | 493 kts | 348° |
| 2026-04-26 02:10 | 18.96663 | 39.51979 | 31865 ft | 493 kts | 348° |
| 2026-04-26 02:10 | 19.03439 | 39.51017 | 31856 ft | 493 kts | 348° |
| 2026-04-26 02:11 | 19.10255 | 39.50048 | 31860 ft | 494 kts | 348° |
| 2026-04-26 02:11 | 19.17066 | 39.49079 | 31856 ft | 494 kts | 348° |
| 2026-04-26 02:12 | 19.23844 | 39.48114 | 31871 ft | 494 kts | 348° |
| 2026-04-26 02:12 | 19.30666 | 39.47142 | 31860 ft | 494 kts | 348° |
| 2026-04-26 02:13 | 19.37502 | 39.46167 | 31865 ft | 494 kts | 347° |
| 2026-04-26 02:13 | 19.44307 | 39.45196 | 31859 ft | 494 kts | 347° |
| 2026-04-26 02:14 | 19.51091 | 39.44227 | 31865 ft | 494 kts | 347° |
| 2026-04-26 02:14 | 19.57931 | 39.43249 | 31862 ft | 494 kts | 347° |
| 2026-04-26 02:15 | 19.64720 | 39.42278 | 31860 ft | 495 kts | 347° |
| 2026-04-26 02:15 | 19.71561 | 39.41298 | 31864 ft | 495 kts | 347° |
| 2026-04-26 02:16 | 19.77222 | 39.40486 | 31862 ft | 495 kts | 347° |
| 2026-04-26 02:16 | 19.84083 | 39.39502 | 31859 ft | 495 kts | 347° |
| 2026-04-26 02:17 | 19.90916 | 39.38521 | 31864 ft | 495 kts | 347° |
| 2026-04-26 02:17 | 19.97734 | 39.37542 | 31864 ft | 495 kts | 347° |
| 2026-04-26 02:18 | 20.04541 | 39.36563 | 31866 ft | 496 kts | 347° |
| 2026-04-26 02:18 | 20.11406 | 39.35574 | 31866 ft | 496 kts | 347° |
| 2026-04-26 02:19 | 20.18216 | 39.34593 | 31861 ft | 496 kts | 347° |
| 2026-04-26 02:19 | 20.25034 | 39.33610 | 31861 ft | 496 kts | 347° |
| 2026-04-26 02:20 | 20.31893 | 39.32620 | 31862 ft | 496 kts | 347° |
| 2026-04-26 02:20 | 20.38696 | 39.31638 | 31862 ft | 495 kts | 347° |
| 2026-04-26 02:21 | 20.45539 | 39.30648 | 31858 ft | 495 kts | 346° |
| 2026-04-26 02:21 | 20.52372 | 39.29660 | 31861 ft | 495 kts | 346° |
| 2026-04-26 02:22 | 20.59225 | 39.28667 | 31859 ft | 495 kts | 346° |
| 2026-04-26 02:22 | 20.66012 | 39.27683 | 31859 ft | 495 kts | 346° |
| 2026-04-26 02:23 | 20.72819 | 39.26695 | 31863 ft | 495 kts | 346° |
| 2026-04-26 02:23 | 20.79664 | 39.25701 | 31862 ft | 494 kts | 346° |
| 2026-04-26 02:24 | 20.86467 | 39.24712 | 31869 ft | 494 kts | 346° |
| 2026-04-26 02:24 | 20.93268 | 39.23722 | 31874 ft | 494 kts | 346° |
| 2026-04-26 02:25 | 21.00121 | 39.22724 | 31870 ft | 494 kts | 346° |
| 2026-04-26 02:25 | 21.06909 | 39.21735 | 31880 ft | 494 kts | 346° |
| 2026-04-26 02:26 | 21.13717 | 39.20742 | 31879 ft | 494 kts | 346° |
| 2026-04-26 02:26 | 21.20529 | 39.19747 | 31864 ft | 494 kts | 346° |
| 2026-04-26 02:27 | 21.27324 | 39.18753 | 31861 ft | 494 kts | 346° |
| 2026-04-26 02:27 | 21.34124 | 39.17758 | 31859 ft | 494 kts | 345° |
| 2026-04-26 02:28 | 21.40955 | 39.16758 | 31861 ft | 494 kts | 345° |
| 2026-04-26 02:28 | 21.47749 | 39.15762 | 31852 ft | 494 kts | 345° |
| 2026-04-26 02:29 | 21.54536 | 39.14765 | 31855 ft | 494 kts | 345° |
| 2026-04-26 02:29 | 21.61332 | 39.13767 | 31854 ft | 494 kts | 345° |
| 2026-04-26 02:30 | 21.68051 | 39.12544 | 31847 ft | 481 kts | 334° |
| 2026-04-26 02:30 | 21.71057 | 39.11004 | 31873 ft | 467 kts | 321° |
| 2026-04-26 02:30 | 21.73603 | 39.08902 | 31855 ft | 461 kts | 310° |
| 2026-04-26 02:31 | 21.77544 | 39.03591 | 31854 ft | 457 kts | 301° |
| 2026-04-26 02:31 | 21.81361 | 38.98091 | 31854 ft | 462 kts | 302° |
| 2026-04-26 02:32 | 21.85198 | 38.92646 | 31836 ft | 453 kts | 302° |
| 2026-04-26 02:32 | 21.89017 | 38.87254 | 31850 ft | 453 kts | 302° |
| 2026-04-26 02:33 | 21.92835 | 38.81858 | 31850 ft | 453 kts | 302° |
| 2026-04-26 02:33 | 21.96666 | 38.76440 | 31852 ft | 454 kts | 302° |
| 2026-04-26 02:34 | 22.00500 | 38.71012 | 31851 ft | 454 kts | 302° |
| 2026-04-26 02:34 | 22.04310 | 38.65611 | 31854 ft | 454 kts | 302° |
| 2026-04-26 02:35 | 22.08131 | 38.60191 | 31855 ft | 454 kts | 302° |
| 2026-04-26 02:35 | 22.11944 | 38.54775 | 31857 ft | 454 kts | 302° |
| 2026-04-26 02:36 | 22.15763 | 38.49347 | 31861 ft | 453 kts | 301° |
| 2026-04-26 02:36 | 22.19569 | 38.43931 | 31865 ft | 452 kts | 301° |
| 2026-04-26 02:37 | 22.23354 | 38.38540 | 31865 ft | 451 kts | 301° |
| 2026-04-26 02:37 | 22.27149 | 38.33127 | 31868 ft | 451 kts | 301° |
| 2026-04-26 02:38 | 22.30915 | 38.27751 | 31870 ft | 450 kts | 301° |
| 2026-04-26 02:38 | 22.34682 | 38.22368 | 31876 ft | 450 kts | 301° |
| 2026-04-26 02:39 | 22.38454 | 38.16973 | 31878 ft | 450 kts | 301° |
| 2026-04-26 02:39 | 22.42235 | 38.11559 | 31875 ft | 449 kts | 301° |
| 2026-04-26 02:40 | 22.45992 | 38.06174 | 31875 ft | 449 kts | 301° |
| 2026-04-26 02:40 | 22.49732 | 38.00809 | 31883 ft | 449 kts | 301° |
| 2026-04-26 02:41 | 22.53497 | 37.95402 | 31886 ft | 449 kts | 301° |
| 2026-04-26 02:41 | 22.57241 | 37.90020 | 31889 ft | 449 kts | 301° |
| 2026-04-26 02:42 | 22.61003 | 37.84606 | 31886 ft | 448 kts | 301° |
| 2026-04-26 02:42 | 22.64751 | 37.79207 | 31887 ft | 448 kts | 301° |
| 2026-04-26 02:43 | 22.70344 | 37.71139 | 31888 ft | 448 kts | 301° |
| 2026-04-26 02:43 | 22.74088 | 37.65732 | 31884 ft | 447 kts | 300° |
| 2026-04-26 02:44 | 22.77791 | 37.60377 | 31883 ft | 447 kts | 300° |
| 2026-04-26 02:44 | 22.81539 | 37.54954 | 31885 ft | 446 kts | 300° |
| 2026-04-26 02:45 | 22.85235 | 37.49599 | 31887 ft | 446 kts | 300° |
| 2026-04-26 02:45 | 22.88962 | 37.44193 | 31883 ft | 446 kts | 300° |
| 2026-04-26 02:46 | 22.92657 | 37.38829 | 31887 ft | 445 kts | 300° |
| 2026-04-26 02:46 | 22.96373 | 37.33428 | 31887 ft | 445 kts | 300° |
| 2026-04-26 02:47 | 23.00078 | 37.28039 | 31890 ft | 445 kts | 300° |
| 2026-04-26 02:47 | 23.03766 | 37.22668 | 31888 ft | 445 kts | 300° |
| 2026-04-26 02:48 | 23.07450 | 37.17298 | 31891 ft | 444 kts | 300° |
| 2026-04-26 02:48 | 23.11149 | 37.11899 | 31894 ft | 444 kts | 300° |
| 2026-04-26 02:49 | 23.14826 | 37.06528 | 31897 ft | 444 kts | 300° |
| 2026-04-26 02:49 | 23.18509 | 37.01141 | 31898 ft | 443 kts | 300° |
| 2026-04-26 02:50 | 23.22174 | 36.95776 | 31898 ft | 443 kts | 300° |
| 2026-04-26 02:50 | 23.25837 | 36.90408 | 31897 ft | 443 kts | 300° |
| 2026-04-26 02:51 | 23.29497 | 36.85040 | 31895 ft | 442 kts | 300° |
| 2026-04-26 02:51 | 23.33166 | 36.79651 | 31896 ft | 442 kts | 299° |
| 2026-04-26 02:52 | 23.36805 | 36.74302 | 31902 ft | 441 kts | 299° |
| 2026-04-26 02:52 | 23.40456 | 36.68929 | 31899 ft | 441 kts | 299° |
| 2026-04-26 02:53 | 23.44094 | 36.63569 | 31899 ft | 441 kts | 299° |
| 2026-04-26 02:53 | 23.47726 | 36.58213 | 31899 ft | 440 kts | 299° |
| 2026-04-26 02:54 | 23.51383 | 36.52815 | 31898 ft | 440 kts | 299° |
| 2026-04-26 02:54 | 23.55008 | 36.47458 | 31899 ft | 440 kts | 299° |
| 2026-04-26 02:55 | 23.58635 | 36.42091 | 31898 ft | 440 kts | 299° |
| 2026-04-26 02:55 | 23.62255 | 36.36730 | 31908 ft | 440 kts | 299° |
| 2026-04-26 02:56 | 23.65880 | 36.31355 | 31895 ft | 440 kts | 299° |
| 2026-04-26 02:56 | 23.69503 | 36.25978 | 31897 ft | 440 kts | 299° |
| 2026-04-26 02:57 | 23.73103 | 36.20630 | 31902 ft | 440 kts | 298° |
| 2026-04-26 02:57 | 23.76725 | 36.15243 | 31900 ft | 440 kts | 298° |
| 2026-04-26 02:58 | 23.80350 | 36.09845 | 31902 ft | 440 kts | 298° |
| 2026-04-26 02:58 | 23.83968 | 36.04453 | 31905 ft | 440 kts | 298° |
| 2026-04-26 02:59 | 23.87571 | 35.99077 | 31903 ft | 439 kts | 298° |
| 2026-04-26 02:59 | 23.91177 | 35.93691 | 31909 ft | 439 kts | 298° |
| 2026-04-26 03:00 | 23.94773 | 35.88315 | 31910 ft | 439 kts | 298° |
| 2026-04-26 03:00 | 23.98376 | 35.82921 | 31912 ft | 438 kts | 298° |
| 2026-04-26 03:01 | 24.01959 | 35.77552 | 31907 ft | 438 kts | 298° |
| 2026-04-26 03:01 | 24.05523 | 35.72205 | 31909 ft | 437 kts | 298° |
| 2026-04-26 03:02 | 24.09109 | 35.66820 | 31915 ft | 437 kts | 298° |
| 2026-04-26 03:02 | 24.12682 | 35.61448 | 31906 ft | 436 kts | 298° |
| 2026-04-26 03:03 | 24.16246 | 35.56085 | 31913 ft | 436 kts | 298° |
| 2026-04-26 03:03 | 24.19824 | 35.50693 | 31915 ft | 436 kts | 298° |
| 2026-04-26 03:04 | 24.23372 | 35.45341 | 31923 ft | 436 kts | 298° |
| 2026-04-26 03:04 | 24.26943 | 35.39949 | 31920 ft | 436 kts | 298° |
| 2026-04-26 03:05 | 24.30490 | 35.34586 | 31924 ft | 436 kts | 298° |
| 2026-04-26 03:05 | 24.34036 | 35.29222 | 31920 ft | 435 kts | 298° |
| 2026-04-26 03:06 | 24.37588 | 35.23841 | 31928 ft | 435 kts | 298° |
| 2026-04-26 03:06 | 24.40553 | 35.19344 | 31917 ft | 435 kts | 298° |
| 2026-04-26 03:07 | 24.44660 | 35.13110 | 31926 ft | 434 kts | 298° |
| 2026-04-26 03:07 | 24.47612 | 35.08623 | 31932 ft | 434 kts | 298° |
| 2026-04-26 03:08 | 24.51138 | 35.03260 | 31930 ft | 433 kts | 298° |
| 2026-04-26 03:08 | 24.54664 | 34.97889 | 31931 ft | 433 kts | 298° |
| 2026-04-26 03:09 | 24.58195 | 34.92505 | 31945 ft | 433 kts | 298° |
| 2026-04-26 03:09 | 24.61710 | 34.87140 | 31948 ft | 433 kts | 298° |
| 2026-04-26 03:10 | 24.65216 | 34.81781 | 31949 ft | 433 kts | 298° |
| 2026-04-26 03:10 | 24.68725 | 34.76414 | 31954 ft | 433 kts | 298° |
| 2026-04-26 03:11 | 24.72235 | 34.71038 | 31954 ft | 432 kts | 298° |
| 2026-04-26 03:11 | 24.75733 | 34.65677 | 31970 ft | 431 kts | 297° |
| 2026-04-26 03:12 | 24.79238 | 34.60299 | 31976 ft | 431 kts | 297° |
| 2026-04-26 03:12 | 24.82740 | 34.54917 | 31969 ft | 432 kts | 297° |
| 2026-04-26 03:13 | 24.86226 | 34.49555 | 31977 ft | 431 kts | 297° |
| 2026-04-26 03:13 | 24.89699 | 34.44205 | 31967 ft | 431 kts | 298° |
| 2026-04-26 03:14 | 24.93181 | 34.38837 | 31966 ft | 431 kts | 297° |
| 2026-04-26 03:14 | 24.96657 | 34.33471 | 31965 ft | 431 kts | 297° |
| 2026-04-26 03:15 | 25.00144 | 34.28083 | 31963 ft | 431 kts | 297° |
| 2026-04-26 03:15 | 25.03645 | 34.22668 | 31967 ft | 431 kts | 297° |
| 2026-04-26 03:16 | 25.07112 | 34.17299 | 31958 ft | 431 kts | 297° |
| 2026-04-26 03:16 | 25.10578 | 34.11927 | 31966 ft | 431 kts | 297° |
| 2026-04-26 03:17 | 25.14053 | 34.06533 | 31963 ft | 431 kts | 297° |
| 2026-04-26 03:17 | 25.17534 | 34.01124 | 31960 ft | 431 kts | 297° |
| 2026-04-26 03:18 | 25.20992 | 33.95744 | 31954 ft | 431 kts | 297° |
| 2026-04-26 03:18 | 25.24456 | 33.90349 | 31949 ft | 431 kts | 297° |
| 2026-04-26 03:19 | 25.27953 | 33.84896 | 31947 ft | 432 kts | 297° |
| 2026-04-26 03:19 | 25.31416 | 33.79491 | 31945 ft | 433 kts | 297° |
| 2026-04-26 03:20 | 25.34903 | 33.74042 | 31939 ft | 433 kts | 297° |
| 2026-04-26 03:20 | 25.38358 | 33.68636 | 31941 ft | 434 kts | 297° |
| 2026-04-26 03:21 | 25.41855 | 33.63161 | 31942 ft | 434 kts | 297° |
| 2026-04-26 03:21 | 25.45336 | 33.57701 | 31937 ft | 435 kts | 297° |
| 2026-04-26 03:22 | 25.48813 | 33.52239 | 31932 ft | 435 kts | 297° |
| 2026-04-26 03:22 | 25.52284 | 33.46785 | 31922 ft | 435 kts | 297° |
| 2026-04-26 03:23 | 25.55784 | 33.41279 | 31924 ft | 435 kts | 297° |
| 2026-04-26 03:23 | 25.59244 | 33.35828 | 31920 ft | 435 kts | 297° |
| 2026-04-26 03:24 | 25.62738 | 33.30317 | 31922 ft | 434 kts | 297° |
| 2026-04-26 03:24 | 25.66201 | 33.24849 | 31915 ft | 433 kts | 297° |
| 2026-04-26 03:25 | 25.69646 | 33.19403 | 31906 ft | 433 kts | 297° |
| 2026-04-26 03:25 | 25.73097 | 33.13941 | 31905 ft | 432 kts | 297° |
| 2026-04-26 03:26 | 25.76529 | 33.08502 | 31908 ft | 431 kts | 297° |
| 2026-04-26 03:26 | 25.79982 | 33.03023 | 31897 ft | 430 kts | 297° |
| 2026-04-26 03:27 | 25.83395 | 32.97601 | 31900 ft | 430 kts | 297° |
| 2026-04-26 03:27 | 25.86822 | 32.92151 | 31896 ft | 429 kts | 297° |
| 2026-04-26 03:28 | 25.90223 | 32.86736 | 31900 ft | 429 kts | 297° |
| 2026-04-26 03:28 | 25.93650 | 32.81273 | 31895 ft | 429 kts | 297° |
| 2026-04-26 03:29 | 25.97056 | 32.75839 | 31895 ft | 429 kts | 297° |
| 2026-04-26 03:29 | 26.00465 | 32.70392 | 31907 ft | 429 kts | 297° |
| 2026-04-26 03:30 | 26.03873 | 32.64938 | 31905 ft | 430 kts | 297° |
| 2026-04-26 03:30 | 26.07277 | 32.59487 | 31901 ft | 430 kts | 297° |
| 2026-04-26 03:31 | 26.10706 | 32.53989 | 31912 ft | 430 kts | 297° |
| 2026-04-26 03:31 | 26.14092 | 32.48554 | 31918 ft | 429 kts | 297° |
| 2026-04-26 03:32 | 26.17497 | 32.43081 | 31922 ft | 429 kts | 297° |
| 2026-04-26 03:32 | 26.20875 | 32.37646 | 31930 ft | 430 kts | 297° |
| 2026-04-26 03:33 | 26.24279 | 32.32160 | 31936 ft | 430 kts | 297° |
| 2026-04-26 03:33 | 26.27683 | 32.26670 | 31926 ft | 430 kts | 297° |
| 2026-04-26 03:34 | 26.31082 | 32.21181 | 31955 ft | 430 kts | 297° |
| 2026-04-26 03:34 | 26.34479 | 32.15688 | 31939 ft | 430 kts | 297° |
| 2026-04-26 03:35 | 26.37854 | 32.10223 | 31947 ft | 430 kts | 297° |
| 2026-04-26 03:35 | 26.41256 | 32.04710 | 31949 ft | 430 kts | 297° |
| 2026-04-26 03:36 | 26.44646 | 31.99211 | 31962 ft | 430 kts | 297° |
| 2026-04-26 03:36 | 26.48017 | 31.93733 | 31966 ft | 430 kts | 297° |
| 2026-04-26 03:37 | 26.51413 | 31.88209 | 31976 ft | 430 kts | 297° |
| 2026-04-26 03:37 | 26.54779 | 31.82725 | 31975 ft | 431 kts | 297° |
| 2026-04-26 03:38 | 26.58175 | 31.77190 | 31974 ft | 431 kts | 297° |
| 2026-04-26 03:38 | 26.61545 | 31.71688 | 31980 ft | 430 kts | 297° |
| 2026-04-26 03:39 | 26.64939 | 31.66141 | 31986 ft | 429 kts | 297° |
| 2026-04-26 03:39 | 26.68289 | 31.60657 | 31987 ft | 429 kts | 297° |
| 2026-04-26 03:40 | 26.71660 | 31.55132 | 31996 ft | 429 kts | 297° |
| 2026-04-26 03:40 | 26.75010 | 31.49637 | 31997 ft | 428 kts | 297° |
| 2026-04-26 03:41 | 26.78354 | 31.44144 | 32003 ft | 428 kts | 297° |
| 2026-04-26 03:41 | 26.81708 | 31.38627 | 32003 ft | 428 kts | 297° |
| 2026-04-26 03:42 | 26.85049 | 31.33126 | 32015 ft | 428 kts | 297° |
| 2026-04-26 03:42 | 26.88402 | 31.27597 | 32028 ft | 428 kts | 297° |
| 2026-04-26 03:43 | 26.91738 | 31.22088 | 32039 ft | 428 kts | 297° |
| 2026-04-26 03:43 | 26.95087 | 31.16553 | 32045 ft | 428 kts | 296° |
| 2026-04-26 03:44 | 26.98421 | 31.11037 | 32052 ft | 428 kts | 296° |
| 2026-04-26 03:44 | 27.01823 | 31.05583 | 32050 ft | 432 kts | 301° |
| 2026-04-26 03:45 | 27.05920 | 31.00563 | 32056 ft | 440 kts | 308° |
| 2026-04-26 03:45 | 27.10570 | 30.96064 | 32057 ft | 444 kts | 310° |
| 2026-04-26 03:46 | 27.15324 | 30.91586 | 32048 ft | 443 kts | 310° |
| 2026-04-26 03:47 | 27.22369 | 30.84907 | 32040 ft | 442 kts | 310° |
| 2026-04-26 03:47 | 27.27050 | 30.80439 | 32042 ft | 441 kts | 310° |
| 2026-04-26 03:48 | 27.31731 | 30.75962 | 32022 ft | 441 kts | 310° |
| 2026-04-26 03:48 | 27.36376 | 30.71513 | 32024 ft | 440 kts | 310° |
| 2026-04-26 03:49 | 27.41048 | 30.67035 | 32029 ft | 440 kts | 310° |
| 2026-04-26 03:49 | 27.45688 | 30.62581 | 32030 ft | 439 kts | 310° |
| 2026-04-26 03:50 | 27.50343 | 30.58106 | 32029 ft | 439 kts | 310° |
| 2026-04-26 03:50 | 27.54998 | 30.53628 | 32028 ft | 439 kts | 310° |
| 2026-04-26 03:51 | 27.59619 | 30.49177 | 32028 ft | 439 kts | 310° |
| 2026-04-26 03:51 | 27.64260 | 30.44703 | 32031 ft | 439 kts | 310° |
| 2026-04-26 03:52 | 27.68902 | 30.40224 | 32030 ft | 438 kts | 310° |
| 2026-04-26 03:52 | 27.73500 | 30.35780 | 32027 ft | 437 kts | 310° |
| 2026-04-26 03:53 | 27.78115 | 30.31313 | 32026 ft | 436 kts | 310° |
| 2026-04-26 03:53 | 27.82727 | 30.26846 | 32032 ft | 436 kts | 310° |
| 2026-04-26 03:54 | 27.87327 | 30.22384 | 32023 ft | 435 kts | 310° |
| 2026-04-26 03:54 | 27.91916 | 30.17928 | 32026 ft | 435 kts | 310° |
| 2026-04-26 03:55 | 27.96508 | 30.13464 | 32023 ft | 435 kts | 310° |
| 2026-04-26 03:55 | 28.01095 | 30.09000 | 32028 ft | 435 kts | 310° |
| 2026-04-26 03:56 | 28.05648 | 30.04564 | 32029 ft | 435 kts | 310° |
| 2026-04-26 03:56 | 28.10218 | 30.00106 | 32024 ft | 434 kts | 310° |
| 2026-04-26 03:57 | 28.14798 | 29.95633 | 32028 ft | 434 kts | 310° |
| 2026-04-26 03:57 | 28.18619 | 29.91897 | 32027 ft | 434 kts | 310° |
| 2026-04-26 03:58 | 28.23196 | 29.87417 | 32028 ft | 434 kts | 310° |
| 2026-04-26 03:58 | 28.27751 | 29.82954 | 32026 ft | 434 kts | 310° |
| 2026-04-26 03:59 | 28.32334 | 29.78457 | 32029 ft | 435 kts | 310° |
| 2026-04-26 03:59 | 28.36920 | 29.73952 | 32023 ft | 435 kts | 310° |
| 2026-04-26 04:00 | 28.41489 | 29.69460 | 32026 ft | 436 kts | 310° |
| 2026-04-26 04:00 | 28.46066 | 29.64953 | 32029 ft | 436 kts | 310° |
| 2026-04-26 04:01 | 28.50673 | 29.60412 | 32031 ft | 437 kts | 310° |
| 2026-04-26 04:01 | 28.55238 | 29.55907 | 32025 ft | 437 kts | 310° |
| 2026-04-26 04:02 | 28.59836 | 29.51365 | 32029 ft | 437 kts | 310° |
| 2026-04-26 04:02 | 28.64398 | 29.46852 | 32032 ft | 437 kts | 310° |
| 2026-04-26 04:03 | 28.69002 | 29.42290 | 32027 ft | 437 kts | 310° |
| 2026-04-26 04:03 | 28.73573 | 29.37759 | 32023 ft | 437 kts | 310° |
| 2026-04-26 04:04 | 28.78168 | 29.33197 | 32017 ft | 437 kts | 310° |
| 2026-04-26 04:04 | 28.82753 | 29.28639 | 32018 ft | 438 kts | 310° |
| 2026-04-26 04:05 | 28.87331 | 29.24083 | 32024 ft | 438 kts | 310° |
| 2026-04-26 04:05 | 28.91931 | 29.19499 | 32022 ft | 439 kts | 310° |
| 2026-04-26 04:06 | 28.96539 | 29.14902 | 32025 ft | 439 kts | 310° |
| 2026-04-26 04:06 | 29.01111 | 29.10334 | 32020 ft | 439 kts | 310° |
| 2026-04-26 04:07 | 29.05709 | 29.05736 | 32019 ft | 439 kts | 310° |
| 2026-04-26 04:07 | 29.10311 | 29.01128 | 32020 ft | 439 kts | 310° |
| 2026-04-26 04:08 | 29.14909 | 28.96518 | 32019 ft | 439 kts | 310° |
| 2026-04-26 04:08 | 29.19507 | 28.91902 | 32017 ft | 439 kts | 310° |
| 2026-04-26 04:09 | 29.24105 | 28.87281 | 32023 ft | 440 kts | 310° |
| 2026-04-26 04:09 | 29.28683 | 28.82674 | 32017 ft | 440 kts | 310° |
| 2026-04-26 04:10 | 29.33286 | 28.78035 | 32016 ft | 441 kts | 310° |
| 2026-04-26 04:10 | 29.37898 | 28.73383 | 32022 ft | 441 kts | 310° |
| 2026-04-26 04:11 | 29.42505 | 28.68729 | 32004 ft | 441 kts | 310° |
| 2026-04-26 04:11 | 29.47116 | 28.64066 | 32005 ft | 441 kts | 310° |
| 2026-04-26 04:12 | 29.51691 | 28.59433 | 32016 ft | 441 kts | 310° |
| 2026-04-26 04:12 | 29.56298 | 28.54762 | 32016 ft | 441 kts | 310° |
| 2026-04-26 04:13 | 29.60903 | 28.50087 | 32015 ft | 442 kts | 310° |
| 2026-04-26 04:13 | 29.65508 | 28.45406 | 32018 ft | 442 kts | 310° |
| 2026-04-26 04:14 | 29.70117 | 28.40714 | 32019 ft | 442 kts | 310° |
| 2026-04-26 04:14 | 29.74725 | 28.36018 | 32026 ft | 442 kts | 310° |
| 2026-04-26 04:15 | 29.79299 | 28.31351 | 32019 ft | 442 kts | 310° |
| 2026-04-26 04:15 | 29.83906 | 28.26644 | 32024 ft | 442 kts | 310° |
| 2026-04-26 04:16 | 29.88518 | 28.21926 | 32022 ft | 443 kts | 310° |
| 2026-04-26 04:16 | 29.93130 | 28.17201 | 32022 ft | 444 kts | 310° |
| 2026-04-26 04:17 | 29.97749 | 28.12463 | 32020 ft | 444 kts | 310° |
| 2026-04-26 04:17 | 30.02371 | 28.07716 | 32013 ft | 445 kts | 310° |
| 2026-04-26 04:18 | 30.06980 | 28.02976 | 32010 ft | 445 kts | 310° |
| 2026-04-26 04:18 | 30.11591 | 27.98229 | 32014 ft | 445 kts | 310° |
| 2026-04-26 04:19 | 30.16213 | 27.93464 | 32013 ft | 445 kts | 310° |
| 2026-04-26 04:19 | 30.20837 | 27.88690 | 32009 ft | 445 kts | 310° |
| 2026-04-26 04:20 | 30.25461 | 27.83910 | 32009 ft | 445 kts | 310° |
| 2026-04-26 04:20 | 30.30059 | 27.79151 | 32008 ft | 445 kts | 310° |
| 2026-04-26 04:21 | 30.34682 | 27.74359 | 32009 ft | 446 kts | 310° |
| 2026-04-26 04:21 | 30.39311 | 27.69555 | 32019 ft | 446 kts | 310° |
| 2026-04-26 04:22 | 30.43935 | 27.64749 | 32010 ft | 447 kts | 310° |
| 2026-04-26 04:22 | 30.48541 | 27.59957 | 31992 ft | 447 kts | 310° |
| 2026-04-26 04:23 | 30.53172 | 27.55131 | 32001 ft | 447 kts | 311° |
| 2026-04-26 04:23 | 30.57797 | 27.50305 | 32004 ft | 447 kts | 311° |
| 2026-04-26 04:24 | 30.62384 | 27.45516 | 31989 ft | 441 kts | 310° |
| 2026-04-26 04:24 | 30.66912 | 27.40787 | 31993 ft | 436 kts | 310° |
| 2026-04-26 04:25 | 30.71429 | 27.36049 | 31998 ft | 438 kts | 310° |
| 2026-04-26 04:25 | 30.75951 | 27.31300 | 31997 ft | 440 kts | 310° |
| 2026-04-26 04:26 | 30.80500 | 27.26521 | 31995 ft | 441 kts | 310° |
| 2026-04-26 04:26 | 30.85049 | 27.21737 | 31999 ft | 441 kts | 310° |
| 2026-04-26 04:27 | 30.89601 | 27.16944 | 31990 ft | 441 kts | 310° |
| 2026-04-26 04:27 | 30.94123 | 27.12177 | 31989 ft | 441 kts | 310° |
| 2026-04-26 04:28 | 30.98668 | 27.07377 | 31987 ft | 441 kts | 310° |
| 2026-04-26 04:28 | 31.03214 | 27.02570 | 31988 ft | 441 kts | 310° |
| 2026-04-26 04:29 | 31.07739 | 26.97779 | 31983 ft | 441 kts | 310° |
| 2026-04-26 04:29 | 31.12288 | 26.92955 | 31982 ft | 441 kts | 311° |
| 2026-04-26 04:30 | 31.16830 | 26.88133 | 31983 ft | 442 kts | 311° |
| 2026-04-26 04:30 | 31.21383 | 26.83293 | 31983 ft | 442 kts | 311° |
| 2026-04-26 04:31 | 31.25921 | 26.78462 | 31985 ft | 443 kts | 311° |
| 2026-04-26 04:31 | 31.30484 | 26.73598 | 31978 ft | 444 kts | 311° |
| 2026-04-26 04:32 | 31.35053 | 26.68721 | 31979 ft | 444 kts | 311° |
| 2026-04-26 04:32 | 31.39628 | 26.63830 | 31979 ft | 445 kts | 311° |
| 2026-04-26 04:33 | 31.44172 | 26.58966 | 31977 ft | 446 kts | 311° |
| 2026-04-26 04:33 | 31.48752 | 26.54057 | 31972 ft | 446 kts | 311° |
| 2026-04-26 04:34 | 31.53329 | 26.49145 | 31973 ft | 446 kts | 312° |
| 2026-04-26 04:34 | 31.57904 | 26.44227 | 31972 ft | 446 kts | 312° |
| 2026-04-26 04:35 | 31.62457 | 26.39327 | 31973 ft | 446 kts | 312° |
| 2026-04-26 04:35 | 31.67037 | 26.34391 | 31972 ft | 446 kts | 312° |
| 2026-04-26 04:36 | 31.71620 | 26.29444 | 31974 ft | 446 kts | 312° |
| 2026-04-26 04:36 | 31.76164 | 26.24531 | 31972 ft | 447 kts | 312° |
| 2026-04-26 04:37 | 31.80737 | 26.19582 | 31972 ft | 447 kts | 312° |
| 2026-04-26 04:37 | 31.85315 | 26.14620 | 31966 ft | 447 kts | 312° |
| 2026-04-26 04:38 | 31.89889 | 26.09656 | 31965 ft | 447 kts | 312° |
| 2026-04-26 04:38 | 31.94443 | 26.04705 | 31965 ft | 448 kts | 312° |
| 2026-04-26 04:39 | 31.99021 | 25.99722 | 31964 ft | 448 kts | 312° |
| 2026-04-26 04:39 | 32.03600 | 25.94731 | 31957 ft | 448 kts | 312° |
| 2026-04-26 04:40 | 32.08177 | 25.89734 | 31963 ft | 448 kts | 313° |
| 2026-04-26 04:40 | 32.12723 | 25.84765 | 31958 ft | 448 kts | 313° |
| 2026-04-26 04:41 | 32.17297 | 25.79757 | 31956 ft | 448 kts | 313° |
| 2026-04-26 04:41 | 32.21875 | 25.74738 | 31955 ft | 448 kts | 313° |
| 2026-04-26 04:42 | 32.26418 | 25.69750 | 31957 ft | 448 kts | 313° |
| 2026-04-26 04:42 | 32.30991 | 25.64722 | 31953 ft | 448 kts | 313° |
| 2026-04-26 04:43 | 32.35559 | 25.59692 | 31952 ft | 449 kts | 313° |
| 2026-04-26 04:43 | 32.39358 | 25.55503 | 31952 ft | 449 kts | 313° |
| 2026-04-26 04:44 | 32.44686 | 25.49621 | 31949 ft | 450 kts | 313° |
| 2026-04-26 04:44 | 32.48495 | 25.45409 | 31950 ft | 450 kts | 313° |
| 2026-04-26 04:45 | 32.53068 | 25.40345 | 31946 ft | 450 kts | 313° |
| 2026-04-26 04:45 | 32.58391 | 25.34442 | 31953 ft | 450 kts | 314° |
| 2026-04-26 04:46 | 32.62227 | 25.30183 | 31952 ft | 450 kts | 314° |
| 2026-04-26 04:46 | 32.66772 | 25.25129 | 31947 ft | 451 kts | 314° |
| 2026-04-26 04:47 | 32.71348 | 25.20032 | 31946 ft | 451 kts | 314° |
| 2026-04-26 04:47 | 32.75920 | 25.14933 | 31944 ft | 451 kts | 314° |
| 2026-04-26 04:48 | 32.82756 | 25.07294 | 31947 ft | 451 kts | 314° |
| 2026-04-26 04:48 | 32.87324 | 25.02180 | 31948 ft | 451 kts | 314° |
| 2026-04-26 04:49 | 32.91898 | 24.97052 | 31946 ft | 451 kts | 315° |
| 2026-04-26 04:49 | 32.96470 | 24.91918 | 31948 ft | 451 kts | 315° |
| 2026-04-26 04:50 | 33.01022 | 24.86800 | 31949 ft | 451 kts | 315° |
| 2026-04-26 04:50 | 33.05585 | 24.81661 | 31946 ft | 451 kts | 315° |
| 2026-04-26 04:51 | 33.10132 | 24.76532 | 31946 ft | 451 kts | 315° |
| 2026-04-26 04:51 | 33.14688 | 24.71387 | 31948 ft | 451 kts | 315° |
| 2026-04-26 04:52 | 33.19218 | 24.66261 | 31949 ft | 450 kts | 315° |
| 2026-04-26 04:52 | 33.23768 | 24.61106 | 31950 ft | 450 kts | 315° |
| 2026-04-26 04:53 | 33.28318 | 24.55943 | 31952 ft | 451 kts | 315° |
| 2026-04-26 04:53 | 33.32838 | 24.50807 | 31953 ft | 451 kts | 315° |
| 2026-04-26 04:54 | 33.37389 | 24.45627 | 31950 ft | 451 kts | 315° |
| 2026-04-26 04:54 | 33.41943 | 24.40436 | 31955 ft | 452 kts | 316° |
| 2026-04-26 04:55 | 33.46495 | 24.35240 | 31954 ft | 452 kts | 316° |
| 2026-04-26 04:55 | 33.51048 | 24.30034 | 31954 ft | 452 kts | 316° |
| 2026-04-26 04:56 | 33.55573 | 24.24853 | 31956 ft | 453 kts | 316° |
| 2026-04-26 04:56 | 33.60136 | 24.19619 | 31958 ft | 453 kts | 316° |
| 2026-04-26 04:57 | 33.64699 | 24.14379 | 31959 ft | 454 kts | 316° |
| 2026-04-26 04:57 | 33.69258 | 24.09134 | 31958 ft | 454 kts | 316° |
| 2026-04-26 04:58 | 33.73798 | 24.03903 | 31962 ft | 455 kts | 316° |
| 2026-04-26 04:58 | 33.78367 | 23.98630 | 31964 ft | 455 kts | 316° |
| 2026-04-26 04:59 | 33.82937 | 23.93348 | 31966 ft | 455 kts | 316° |
| 2026-04-26 04:59 | 33.87471 | 23.88101 | 31965 ft | 455 kts | 316° |
| 2026-04-26 05:00 | 33.92026 | 23.82819 | 31964 ft | 455 kts | 316° |
| 2026-04-26 05:00 | 33.96587 | 23.77523 | 31967 ft | 455 kts | 316° |
| 2026-04-26 05:01 | 34.01145 | 23.72222 | 31970 ft | 455 kts | 316° |
| 2026-04-26 05:01 | 34.05700 | 23.66916 | 31969 ft | 455 kts | 316° |
| 2026-04-26 05:02 | 34.10258 | 23.61599 | 31969 ft | 456 kts | 316° |
| 2026-04-26 05:02 | 34.14792 | 23.56299 | 31946 ft | 456 kts | 317° |
| 2026-04-26 05:03 | 34.19350 | 23.50965 | 31974 ft | 456 kts | 317° |
| 2026-04-26 05:03 | 34.23907 | 23.45623 | 31978 ft | 456 kts | 317° |
| 2026-04-26 05:04 | 34.28470 | 23.40266 | 31978 ft | 457 kts | 317° |
| 2026-04-26 05:04 | 34.33040 | 23.34893 | 31980 ft | 457 kts | 317° |
| 2026-04-26 05:05 | 34.37578 | 23.29547 | 31983 ft | 458 kts | 317° |
| 2026-04-26 05:05 | 34.42137 | 23.24168 | 31985 ft | 459 kts | 317° |
| 2026-04-26 05:06 | 34.46716 | 23.18756 | 31990 ft | 459 kts | 317° |
| 2026-04-26 05:06 | 34.51271 | 23.13364 | 31994 ft | 459 kts | 317° |
| 2026-04-26 05:07 | 34.55838 | 23.07950 | 31993 ft | 460 kts | 317° |
| 2026-04-26 05:07 | 34.60438 | 23.02489 | 31995 ft | 460 kts | 317° |
| 2026-04-26 05:08 | 34.64874 | 22.96872 | 32001 ft | 461 kts | 313° |
| 2026-04-26 05:08 | 34.69075 | 22.91048 | 32001 ft | 462 kts | 313° |
| 2026-04-26 05:09 | 34.73302 | 22.85141 | 32003 ft | 462 kts | 313° |
| 2026-04-26 05:09 | 34.77538 | 22.79239 | 32009 ft | 463 kts | 313° |
| 2026-04-26 05:10 | 34.81765 | 22.73362 | 32011 ft | 464 kts | 313° |
| 2026-04-26 05:10 | 34.86020 | 22.67443 | 32012 ft | 464 kts | 313° |
| 2026-04-26 05:11 | 34.90275 | 22.61514 | 32021 ft | 464 kts | 314° |
| 2026-04-26 05:11 | 34.94533 | 22.55570 | 32020 ft | 465 kts | 314° |
| 2026-04-26 05:12 | 34.98779 | 22.49631 | 32025 ft | 465 kts | 314° |
| 2026-04-26 05:12 | 35.02995 | 22.43724 | 32022 ft | 465 kts | 314° |
| 2026-04-26 05:13 | 35.07244 | 22.37761 | 32022 ft | 465 kts | 314° |
| 2026-04-26 05:13 | 35.11497 | 22.31782 | 32023 ft | 465 kts | 314° |
| 2026-04-26 05:14 | 35.15718 | 22.25838 | 32023 ft | 465 kts | 314° |
| 2026-04-26 05:14 | 35.19958 | 22.19856 | 32028 ft | 465 kts | 314° |
| 2026-04-26 05:15 | 35.24197 | 22.13866 | 32025 ft | 465 kts | 314° |
| 2026-04-26 05:15 | 35.28403 | 22.07911 | 32030 ft | 465 kts | 314° |
| 2026-04-26 05:16 | 35.32642 | 22.01901 | 32032 ft | 465 kts | 314° |
| 2026-04-26 05:16 | 35.36874 | 21.95888 | 32029 ft | 465 kts | 314° |
| 2026-04-26 05:17 | 35.41105 | 21.89867 | 32037 ft | 466 kts | 314° |
| 2026-04-26 05:17 | 35.45308 | 21.83876 | 32031 ft | 466 kts | 314° |
| 2026-04-26 05:18 | 35.49533 | 21.77843 | 32043 ft | 466 kts | 314° |
| 2026-04-26 05:18 | 35.53759 | 21.71796 | 32035 ft | 466 kts | 314° |
| 2026-04-26 05:19 | 35.57990 | 21.65733 | 32032 ft | 467 kts | 314° |
| 2026-04-26 05:19 | 35.62188 | 21.59706 | 32031 ft | 467 kts | 314° |
| 2026-04-26 05:20 | 35.66414 | 21.53628 | 32033 ft | 467 kts | 314° |
| 2026-04-26 05:20 | 35.70640 | 21.47539 | 32034 ft | 468 kts | 314° |
| 2026-04-26 05:21 | 35.74853 | 21.41459 | 32036 ft | 468 kts | 314° |
| 2026-04-26 05:21 | 35.79097 | 21.35323 | 32035 ft | 469 kts | 314° |
| 2026-04-26 05:22 | 35.83325 | 21.29198 | 32042 ft | 469 kts | 314° |
| 2026-04-26 05:22 | 35.87534 | 21.23089 | 32044 ft | 469 kts | 314° |
| 2026-04-26 05:23 | 35.91760 | 21.16946 | 32045 ft | 470 kts | 314° |
| 2026-04-26 05:23 | 35.95972 | 21.10811 | 32044 ft | 470 kts | 314° |
| 2026-04-26 05:24 | 36.00206 | 21.04633 | 32050 ft | 470 kts | 314° |
| 2026-04-26 05:24 | 36.04429 | 20.98461 | 32049 ft | 470 kts | 314° |
| 2026-04-26 05:25 | 36.08630 | 20.92310 | 32044 ft | 471 kts | 314° |
| 2026-04-26 05:25 | 36.12857 | 20.86109 | 32053 ft | 471 kts | 314° |
| 2026-04-26 05:26 | 36.17092 | 20.79884 | 32047 ft | 471 kts | 314° |
| 2026-04-26 05:26 | 36.21300 | 20.73687 | 32056 ft | 471 kts | 314° |
| 2026-04-26 05:27 | 36.25506 | 20.67483 | 32052 ft | 472 kts | 314° |
| 2026-04-26 05:27 | 36.29742 | 20.61223 | 32062 ft | 472 kts | 314° |
| 2026-04-26 05:28 | 36.33940 | 20.55007 | 32058 ft | 472 kts | 313° |
| 2026-04-26 05:28 | 36.38167 | 20.48737 | 32066 ft | 472 kts | 313° |
| 2026-04-26 05:29 | 36.42378 | 20.42479 | 32064 ft | 473 kts | 313° |
| 2026-04-26 05:29 | 36.46573 | 20.36233 | 32060 ft | 473 kts | 313° |
| 2026-04-26 05:30 | 36.50788 | 20.29946 | 32059 ft | 473 kts | 313° |
| 2026-04-26 05:30 | 36.54974 | 20.23690 | 32060 ft | 473 kts | 313° |
| 2026-04-26 05:31 | 36.59181 | 20.17391 | 32060 ft | 473 kts | 313° |
| 2026-04-26 05:31 | 36.63381 | 20.11091 | 32063 ft | 473 kts | 313° |
| 2026-04-26 05:32 | 36.67597 | 20.04755 | 32067 ft | 473 kts | 313° |
| 2026-04-26 05:32 | 36.71776 | 19.98463 | 32069 ft | 474 kts | 312° |
| 2026-04-26 05:33 | 36.76002 | 19.92087 | 32070 ft | 474 kts | 312° |
| 2026-04-26 05:33 | 36.80178 | 19.85775 | 32067 ft | 474 kts | 312° |
| 2026-04-26 05:34 | 36.84367 | 19.79432 | 32068 ft | 474 kts | 312° |
| 2026-04-26 05:34 | 36.87868 | 19.74120 | 32070 ft | 474 kts | 312° |
| 2026-04-26 05:35 | 36.92039 | 19.67782 | 32070 ft | 474 kts | 312° |
| 2026-04-26 05:35 | 36.96222 | 19.61414 | 32071 ft | 474 kts | 311° |
| 2026-04-26 05:36 | 37.00425 | 19.55003 | 32072 ft | 474 kts | 311° |
| 2026-04-26 05:36 | 37.04579 | 19.48654 | 32070 ft | 474 kts | 311° |
| 2026-04-26 05:37 | 37.08770 | 19.42236 | 32078 ft | 475 kts | 311° |
| 2026-04-26 05:37 | 37.12943 | 19.35834 | 32077 ft | 475 kts | 311° |
| 2026-04-26 05:38 | 37.17105 | 19.29436 | 32076 ft | 475 kts | 311° |
| 2026-04-26 05:38 | 37.21270 | 19.23021 | 32073 ft | 475 kts | 311° |
| 2026-04-26 05:39 | 37.25457 | 19.16559 | 32076 ft | 475 kts | 311° |
| 2026-04-26 05:39 | 37.29605 | 19.10146 | 32080 ft | 475 kts | 310° |
| 2026-04-26 05:40 | 37.33772 | 19.03690 | 32078 ft | 475 kts | 310° |
| 2026-04-26 05:40 | 37.37927 | 18.97241 | 32080 ft | 475 kts | 310° |
| 2026-04-26 05:41 | 37.42090 | 18.90766 | 32079 ft | 475 kts | 310° |
| 2026-04-26 05:41 | 37.46237 | 18.84304 | 32079 ft | 475 kts | 310° |
| 2026-04-26 05:42 | 37.50385 | 18.77827 | 32079 ft | 475 kts | 310° |
| 2026-04-26 05:42 | 37.54525 | 18.71351 | 32078 ft | 475 kts | 310° |
| 2026-04-26 05:43 | 37.58675 | 18.64846 | 32079 ft | 475 kts | 310° |
| 2026-04-26 05:43 | 37.62787 | 18.58388 | 32082 ft | 475 kts | 310° |
| 2026-04-26 05:44 | 37.66924 | 18.51878 | 32083 ft | 475 kts | 309° |
| 2026-04-26 05:44 | 37.71061 | 18.45354 | 32077 ft | 475 kts | 309° |
| 2026-04-26 05:45 | 37.75194 | 18.38823 | 32082 ft | 475 kts | 309° |
| 2026-04-26 05:45 | 37.79300 | 18.32325 | 32082 ft | 475 kts | 309° |
| 2026-04-26 05:46 | 37.83423 | 18.25784 | 32081 ft | 475 kts | 309° |
| 2026-04-26 05:46 | 37.87546 | 18.19231 | 32081 ft | 476 kts | 309° |
| 2026-04-26 05:47 | 37.91667 | 18.12667 | 32084 ft | 476 kts | 309° |
| 2026-04-26 05:47 | 37.95787 | 18.06092 | 32082 ft | 476 kts | 309° |
| 2026-04-26 05:48 | 37.99905 | 17.99508 | 32083 ft | 476 kts | 308° |
| 2026-04-26 05:48 | 38.04018 | 17.92918 | 32083 ft | 476 kts | 308° |
| 2026-04-26 05:49 | 38.10159 | 17.83055 | 32085 ft | 477 kts | 308° |
| 2026-04-26 05:50 | 38.14270 | 17.76434 | 32087 ft | 477 kts | 308° |
| 2026-04-26 05:50 | 38.18377 | 17.69808 | 32087 ft | 477 kts | 308° |
| 2026-04-26 05:51 | 38.22463 | 17.63201 | 32087 ft | 477 kts | 308° |
| 2026-04-26 05:51 | 38.26565 | 17.56554 | 32086 ft | 477 kts | 308° |
| 2026-04-26 05:52 | 38.30665 | 17.49899 | 32087 ft | 477 kts | 308° |
| 2026-04-26 05:52 | 38.34762 | 17.43233 | 32087 ft | 477 kts | 308° |
| 2026-04-26 05:53 | 38.38857 | 17.36557 | 32088 ft | 477 kts | 307° |
| 2026-04-26 05:53 | 38.42920 | 17.29922 | 32089 ft | 477 kts | 307° |
| 2026-04-26 05:54 | 38.47002 | 17.23238 | 32093 ft | 477 kts | 307° |
| 2026-04-26 05:54 | 38.51079 | 17.16550 | 32098 ft | 477 kts | 307° |
| 2026-04-26 05:55 | 38.55155 | 17.09852 | 32102 ft | 477 kts | 307° |
| 2026-04-26 05:55 | 38.59209 | 17.03175 | 32102 ft | 477 kts | 307° |
| 2026-04-26 05:56 | 38.63280 | 16.96457 | 32112 ft | 477 kts | 307° |
| 2026-04-26 05:56 | 38.67329 | 16.89761 | 32114 ft | 478 kts | 307° |
| 2026-04-26 05:57 | 38.71398 | 16.83014 | 32118 ft | 478 kts | 307° |
| 2026-04-26 05:57 | 38.75458 | 16.76273 | 32122 ft | 478 kts | 307° |
| 2026-04-26 05:58 | 38.79519 | 16.69516 | 32134 ft | 478 kts | 307° |
| 2026-04-26 05:58 | 38.83548 | 16.62795 | 32139 ft | 478 kts | 306° |
| 2026-04-26 05:59 | 38.87612 | 16.56004 | 32145 ft | 478 kts | 306° |
| 2026-04-26 05:59 | 38.91662 | 16.49223 | 32163 ft | 478 kts | 306° |
| 2026-04-26 06:00 | 38.95691 | 16.42461 | 32159 ft | 478 kts | 306° |
| 2026-04-26 06:00 | 38.99732 | 16.35662 | 32157 ft | 478 kts | 306° |
| 2026-04-26 06:01 | 39.03768 | 16.28859 | 32158 ft | 478 kts | 306° |
| 2026-04-26 06:01 | 39.07791 | 16.22063 | 32154 ft | 477 kts | 306° |
| 2026-04-26 06:02 | 39.11808 | 16.15263 | 32169 ft | 476 kts | 306° |
| 2026-04-26 06:02 | 39.15816 | 16.08465 | 32172 ft | 476 kts | 306° |
| 2026-04-26 06:03 | 39.19798 | 16.01699 | 32175 ft | 476 kts | 306° |
| 2026-04-26 06:03 | 39.23794 | 15.94891 | 32180 ft | 476 kts | 306° |
| 2026-04-26 06:04 | 39.27789 | 15.88072 | 32180 ft | 476 kts | 306° |
| 2026-04-26 06:04 | 39.31752 | 15.81291 | 32174 ft | 476 kts | 306° |
| 2026-04-26 06:05 | 39.35739 | 15.74456 | 32176 ft | 476 kts | 306° |
| 2026-04-26 06:05 | 39.39722 | 15.67614 | 32172 ft | 476 kts | 306° |
| 2026-04-26 06:06 | 39.43699 | 15.60766 | 32168 ft | 475 kts | 306° |
| 2026-04-26 06:06 | 39.47671 | 15.53912 | 32162 ft | 475 kts | 306° |
| 2026-04-26 06:07 | 39.51636 | 15.47057 | 32164 ft | 475 kts | 306° |
| 2026-04-26 06:07 | 39.55572 | 15.40236 | 32161 ft | 475 kts | 306° |
| 2026-04-26 06:08 | 39.59520 | 15.33379 | 32155 ft | 474 kts | 306° |
| 2026-04-26 06:08 | 39.63471 | 15.26504 | 32154 ft | 474 kts | 306° |
| 2026-04-26 06:09 | 39.67406 | 15.19640 | 32153 ft | 474 kts | 306° |
| 2026-04-26 06:09 | 39.71339 | 15.12766 | 32150 ft | 474 kts | 306° |
| 2026-04-26 06:10 | 39.75239 | 15.05933 | 32147 ft | 473 kts | 306° |
| 2026-04-26 06:10 | 39.79160 | 14.99051 | 32147 ft | 473 kts | 306° |
| 2026-04-26 06:11 | 39.83081 | 14.92152 | 32146 ft | 473 kts | 306° |
| 2026-04-26 06:11 | 39.86965 | 14.85303 | 32145 ft | 473 kts | 306° |
| 2026-04-26 06:12 | 39.90866 | 14.78410 | 32146 ft | 473 kts | 306° |
| 2026-04-26 06:12 | 39.94771 | 14.71495 | 32147 ft | 473 kts | 306° |
| 2026-04-26 06:13 | 39.98664 | 14.64586 | 32149 ft | 472 kts | 306° |
| 2026-04-26 06:13 | 40.02553 | 14.57669 | 32148 ft | 472 kts | 306° |
| 2026-04-26 06:14 | 40.06432 | 14.50754 | 32145 ft | 472 kts | 306° |
| 2026-04-26 06:14 | 40.10307 | 14.43832 | 32148 ft | 472 kts | 306° |
| 2026-04-26 06:15 | 40.14176 | 14.36903 | 32144 ft | 472 kts | 306° |
| 2026-04-26 06:15 | 40.18045 | 14.29962 | 32145 ft | 472 kts | 306° |
| 2026-04-26 06:16 | 40.21926 | 14.22981 | 32145 ft | 473 kts | 306° |
| 2026-04-26 06:16 | 40.25765 | 14.16063 | 32145 ft | 473 kts | 306° |
| 2026-04-26 06:17 | 40.29626 | 14.09087 | 32144 ft | 473 kts | 306° |
| 2026-04-26 06:17 | 40.33490 | 14.02092 | 32141 ft | 473 kts | 306° |
| 2026-04-26 06:18 | 40.37320 | 13.95143 | 32142 ft | 473 kts | 306° |
| 2026-04-26 06:18 | 40.41176 | 13.88130 | 32142 ft | 473 kts | 306° |
| 2026-04-26 06:19 | 40.45018 | 13.81128 | 32141 ft | 473 kts | 306° |
| 2026-04-26 06:19 | 40.48857 | 13.74115 | 32139 ft | 473 kts | 306° |
| 2026-04-26 06:20 | 40.52686 | 13.67104 | 32141 ft | 473 kts | 306° |
| 2026-04-26 06:20 | 40.56510 | 13.60088 | 32140 ft | 473 kts | 306° |
| 2026-04-26 06:21 | 40.60335 | 13.53053 | 32143 ft | 472 kts | 306° |
| 2026-04-26 06:21 | 40.64166 | 13.45991 | 32141 ft | 472 kts | 306° |
| 2026-04-26 06:22 | 40.67963 | 13.38977 | 32140 ft | 473 kts | 306° |
| 2026-04-26 06:22 | 40.71777 | 13.31915 | 32141 ft | 473 kts | 306° |
| 2026-04-26 06:23 | 40.75584 | 13.24849 | 32138 ft | 473 kts | 306° |
| 2026-04-26 06:23 | 40.78752 | 13.18956 | 32138 ft | 473 kts | 306° |
| 2026-04-26 06:24 | 40.83178 | 13.10706 | 32139 ft | 473 kts | 306° |
| 2026-04-26 06:24 | 40.86371 | 13.04740 | 32137 ft | 474 kts | 306° |
| 2026-04-26 06:25 | 40.90164 | 12.97677 | 32136 ft | 473 kts | 307° |
| 2026-04-26 06:25 | 40.94566 | 12.91234 | 32138 ft | 472 kts | 316° |
| 2026-04-26 06:26 | 40.99329 | 12.85248 | 32136 ft | 472 kts | 317° |
| 2026-04-26 06:26 | 41.04073 | 12.79282 | 32131 ft | 472 kts | 316° |
| 2026-04-26 06:27 | 41.08812 | 12.73255 | 32133 ft | 472 kts | 316° |
| 2026-04-26 06:27 | 41.13535 | 12.67207 | 32133 ft | 472 kts | 316° |
| 2026-04-26 06:28 | 41.18256 | 12.61140 | 32133 ft | 471 kts | 316° |
| 2026-04-26 06:28 | 41.22959 | 12.55085 | 32134 ft | 471 kts | 316° |
| 2026-04-26 06:29 | 41.27656 | 12.49029 | 32128 ft | 471 kts | 316° |
| 2026-04-26 06:29 | 41.32337 | 12.42981 | 32127 ft | 470 kts | 316° |
| 2026-04-26 06:30 | 41.37026 | 12.36909 | 32131 ft | 470 kts | 316° |
| 2026-04-26 06:30 | 41.41712 | 12.30827 | 32129 ft | 470 kts | 316° |
| 2026-04-26 06:31 | 41.46404 | 12.24725 | 32129 ft | 470 kts | 316° |
| 2026-04-26 06:31 | 41.51081 | 12.18629 | 32128 ft | 470 kts | 316° |
| 2026-04-26 06:32 | 41.55724 | 12.12565 | 32131 ft | 470 kts | 316° |
| 2026-04-26 06:32 | 41.60397 | 12.06449 | 32130 ft | 470 kts | 316° |
| 2026-04-26 06:33 | 41.65078 | 12.00309 | 32129 ft | 470 kts | 316° |
| 2026-04-26 06:33 | 41.69746 | 11.94173 | 32130 ft | 471 kts | 316° |
| 2026-04-26 06:34 | 41.74417 | 11.88019 | 32132 ft | 471 kts | 315° |
| 2026-04-26 06:34 | 41.79060 | 11.81890 | 32162 ft | 471 kts | 315° |
| 2026-04-26 06:35 | 41.83724 | 11.75719 | 32155 ft | 471 kts | 315° |
| 2026-04-26 06:35 | 41.88385 | 11.69539 | 32141 ft | 471 kts | 315° |
| 2026-04-26 06:36 | 41.93043 | 11.63350 | 32134 ft | 471 kts | 315° |
| 2026-04-26 06:36 | 41.97712 | 11.57132 | 32133 ft | 471 kts | 315° |
| 2026-04-26 06:37 | 42.02365 | 11.50923 | 32133 ft | 471 kts | 315° |
| 2026-04-26 06:37 | 42.06979 | 11.44751 | 32134 ft | 470 kts | 315° |
| 2026-04-26 06:38 | 42.11627 | 11.38522 | 32136 ft | 470 kts | 315° |
| 2026-04-26 06:38 | 42.16269 | 11.32286 | 32137 ft | 470 kts | 315° |
| 2026-04-26 06:39 | 42.20869 | 11.26093 | 32137 ft | 470 kts | 315° |
| 2026-04-26 06:39 | 42.25502 | 11.19842 | 32138 ft | 470 kts | 315° |
| 2026-04-26 06:40 | 42.30131 | 11.13582 | 32142 ft | 470 kts | 315° |
| 2026-04-26 06:40 | 42.34714 | 11.07372 | 32139 ft | 470 kts | 315° |
| 2026-04-26 06:41 | 42.39325 | 11.01109 | 32138 ft | 470 kts | 315° |
| 2026-04-26 06:41 | 42.43945 | 10.94821 | 32137 ft | 470 kts | 315° |
| 2026-04-26 06:42 | 42.48550 | 10.88538 | 32134 ft | 470 kts | 315° |
| 2026-04-26 06:42 | 42.53152 | 10.82247 | 32134 ft | 469 kts | 315° |
| 2026-04-26 06:43 | 42.57745 | 10.75953 | 32138 ft | 469 kts | 315° |
| 2026-04-26 06:43 | 42.62308 | 10.69687 | 32137 ft | 470 kts | 314° |
| 2026-04-26 06:44 | 42.66921 | 10.63337 | 32137 ft | 470 kts | 314° |
| 2026-04-26 06:44 | 42.71484 | 10.57043 | 32140 ft | 470 kts | 314° |
| 2026-04-26 06:45 | 42.76067 | 10.50707 | 32146 ft | 470 kts | 314° |
| 2026-04-26 06:45 | 42.80662 | 10.44341 | 32143 ft | 469 kts | 314° |
| 2026-04-26 06:46 | 42.85233 | 10.37993 | 32147 ft | 469 kts | 314° |
| 2026-04-26 06:46 | 42.89775 | 10.31670 | 32147 ft | 469 kts | 314° |
| 2026-04-26 06:47 | 42.94349 | 10.25290 | 32150 ft | 469 kts | 314° |
| 2026-04-26 06:47 | 42.98912 | 10.18910 | 32150 ft | 469 kts | 314° |
| 2026-04-26 06:48 | 43.03474 | 10.12517 | 32149 ft | 470 kts | 314° |
| 2026-04-26 06:48 | 43.08036 | 10.06109 | 32150 ft | 470 kts | 314° |
| 2026-04-26 06:49 | 43.12565 | 9.99734 | 32154 ft | 470 kts | 314° |
| 2026-04-26 06:49 | 43.17117 | 9.93312 | 32154 ft | 470 kts | 314° |
| 2026-04-26 06:50 | 43.21664 | 9.86882 | 32153 ft | 470 kts | 314° |
| 2026-04-26 06:50 | 43.26228 | 9.80413 | 32154 ft | 470 kts | 314° |
| 2026-04-26 06:51 | 43.30769 | 9.73962 | 32152 ft | 470 kts | 314° |
| 2026-04-26 06:51 | 43.37550 | 9.64303 | 32147 ft | 470 kts | 313° |
| 2026-04-26 06:52 | 43.42082 | 9.57827 | 32159 ft | 470 kts | 313° |
| 2026-04-26 06:52 | 43.46629 | 9.51315 | 32157 ft | 470 kts | 313° |
| 2026-04-26 06:53 | 43.51125 | 9.44861 | 32157 ft | 470 kts | 313° |
| 2026-04-26 06:53 | 43.55655 | 9.38345 | 32148 ft | 470 kts | 313° |
| 2026-04-26 06:54 | 43.60168 | 9.31837 | 32145 ft | 470 kts | 313° |
| 2026-04-26 06:54 | 43.64696 | 9.25293 | 32147 ft | 470 kts | 313° |
| 2026-04-26 06:55 | 43.69179 | 9.18797 | 32155 ft | 470 kts | 313° |
| 2026-04-26 06:55 | 43.73688 | 9.12249 | 32151 ft | 469 kts | 313° |
| 2026-04-26 06:56 | 43.78184 | 9.05706 | 32151 ft | 469 kts | 313° |
| 2026-04-26 06:56 | 43.82665 | 8.99169 | 32147 ft | 469 kts | 313° |
| 2026-04-26 06:57 | 43.87172 | 8.92577 | 32145 ft | 469 kts | 313° |
| 2026-04-26 06:57 | 43.91648 | 8.86017 | 32142 ft | 468 kts | 313° |
| 2026-04-26 06:58 | 43.96098 | 8.79480 | 32139 ft | 468 kts | 313° |
| 2026-04-26 06:58 | 44.00557 | 8.72913 | 32139 ft | 467 kts | 313° |
| 2026-04-26 06:59 | 44.05005 | 8.66347 | 32135 ft | 467 kts | 313° |
| 2026-04-26 06:59 | 44.09460 | 8.59756 | 32135 ft | 466 kts | 313° |
| 2026-04-26 07:00 | 44.13885 | 8.53193 | 32133 ft | 466 kts | 313° |
| 2026-04-26 07:00 | 44.18313 | 8.46611 | 32130 ft | 466 kts | 313° |
| 2026-04-26 07:01 | 44.22743 | 8.40010 | 32129 ft | 466 kts | 313° |
| 2026-04-26 07:01 | 44.27176 | 8.33389 | 32119 ft | 466 kts | 313° |
| 2026-04-26 07:02 | 44.31572 | 8.26808 | 32123 ft | 466 kts | 313° |
| 2026-04-26 07:02 | 44.36007 | 8.20153 | 32104 ft | 465 kts | 312° |
| 2026-04-26 07:03 | 44.40389 | 8.13560 | 32114 ft | 465 kts | 312° |
| 2026-04-26 07:03 | 44.44801 | 8.06909 | 32111 ft | 464 kts | 312° |
| 2026-04-26 07:04 | 44.49170 | 8.00305 | 32097 ft | 463 kts | 312° |
| 2026-04-26 07:04 | 44.53551 | 7.93668 | 32096 ft | 463 kts | 312° |
| 2026-04-26 07:05 | 44.57910 | 7.87048 | 32097 ft | 463 kts | 312° |
| 2026-04-26 07:05 | 44.62262 | 7.80423 | 32101 ft | 463 kts | 312° |
| 2026-04-26 07:06 | 44.66626 | 7.73765 | 32098 ft | 463 kts | 312° |
| 2026-04-26 07:06 | 44.70991 | 7.67088 | 32095 ft | 463 kts | 312° |
| 2026-04-26 07:07 | 44.75353 | 7.60402 | 32097 ft | 463 kts | 312° |
| 2026-04-26 07:07 | 44.79705 | 7.53712 | 32092 ft | 463 kts | 311° |
| 2026-04-26 07:08 | 44.84065 | 7.46995 | 32116 ft | 463 kts | 311° |
| 2026-04-26 07:08 | 44.88387 | 7.40319 | 32155 ft | 463 kts | 311° |
| 2026-04-26 07:09 | 44.92735 | 7.33591 | 32185 ft | 464 kts | 311° |
| 2026-04-26 07:09 | 44.97087 | 7.26837 | 32214 ft | 464 kts | 311° |
| 2026-04-26 07:11 | 45.07910 | 7.09970 | 32223 ft | 464 kts | 311° |
| 2026-04-26 07:11 | 45.12217 | 7.03228 | 32202 ft | 463 kts | 311° |
| 2026-04-26 07:12 | 45.16531 | 6.96463 | 32186 ft | 462 kts | 310° |
| 2026-04-26 07:12 | 45.20134 | 6.90798 | 32172 ft | 462 kts | 310° |
| 2026-04-26 07:13 | 45.24425 | 6.84033 | 32158 ft | 462 kts | 310° |
| 2026-04-26 07:13 | 45.28727 | 6.77238 | 32153 ft | 462 kts | 310° |
| 2026-04-26 07:14 | 45.33027 | 6.70429 | 32164 ft | 462 kts | 310° |
| 2026-04-26 07:14 | 45.37296 | 6.63651 | 32154 ft | 462 kts | 310° |
| 2026-04-26 07:15 | 45.41583 | 6.56828 | 32153 ft | 462 kts | 310° |
| 2026-04-26 07:15 | 45.45857 | 6.50010 | 32157 ft | 462 kts | 310° |
| 2026-04-26 07:16 | 45.50134 | 6.43170 | 32155 ft | 461 kts | 309° |
| 2026-04-26 07:16 | 45.54407 | 6.36320 | 32154 ft | 462 kts | 309° |
| 2026-04-26 07:17 | 45.58676 | 6.29457 | 32160 ft | 462 kts | 309° |
| 2026-04-26 07:17 | 45.62923 | 6.22613 | 32175 ft | 462 kts | 309° |
| 2026-04-26 07:18 | 45.67200 | 6.15705 | 32177 ft | 464 kts | 309° |
| 2026-04-26 07:18 | 45.71473 | 6.08786 | 32183 ft | 464 kts | 309° |
| 2026-04-26 07:19 | 45.75722 | 6.01887 | 32188 ft | 465 kts | 309° |
| 2026-04-26 07:19 | 45.80003 | 5.94923 | 32172 ft | 465 kts | 309° |
| 2026-04-26 07:20 | 45.84281 | 5.87941 | 32190 ft | 465 kts | 309° |
| 2026-04-26 07:20 | 45.88556 | 5.80950 | 32172 ft | 466 kts | 309° |
| 2026-04-26 07:21 | 45.92828 | 5.73944 | 32193 ft | 465 kts | 309° |
| 2026-04-26 07:21 | 45.97097 | 5.66926 | 32169 ft | 466 kts | 309° |
| 2026-04-26 07:22 | 46.01340 | 5.59931 | 32169 ft | 466 kts | 308° |
| 2026-04-26 07:22 | 46.05611 | 5.52873 | 32166 ft | 466 kts | 308° |
| 2026-04-26 07:23 | 46.09866 | 5.45826 | 32166 ft | 466 kts | 308° |
| 2026-04-26 07:23 | 46.14115 | 5.38768 | 32175 ft | 466 kts | 308° |
| 2026-04-26 07:24 | 46.18365 | 5.31692 | 32173 ft | 466 kts | 308° |
| 2026-04-26 07:24 | 46.22579 | 5.24657 | 32172 ft | 466 kts | 308° |
| 2026-04-26 07:25 | 46.26817 | 5.17562 | 32176 ft | 466 kts | 308° |
| 2026-04-26 07:25 | 46.31059 | 5.10444 | 32177 ft | 466 kts | 308° |
| 2026-04-26 07:25 | 46.33173 | 5.06889 | 32002 ft | 467 kts | 308° |
| 2026-04-26 07:26 | 46.35272 | 5.03354 | 31540 ft | 468 kts | 308° |
| 2026-04-26 07:26 | 46.37385 | 4.99792 | 31031 ft | 463 kts | 309° |
| 2026-04-26 07:26 | 46.39471 | 4.96274 | 30497 ft | 459 kts | 309° |
| 2026-04-26 07:26 | 46.41543 | 4.92773 | 29916 ft | 455 kts | 309° |
| 2026-04-26 07:27 | 46.43600 | 4.89292 | 29320 ft | 450 kts | 309° |
| 2026-04-26 07:27 | 46.45627 | 4.85858 | 28777 ft | 446 kts | 309° |
| 2026-04-26 07:27 | 46.47632 | 4.82457 | 28218 ft | 441 kts | 309° |
| 2026-04-26 07:27 | 46.49617 | 4.79085 | 27679 ft | 437 kts | 309° |
| 2026-04-26 07:28 | 46.51558 | 4.75783 | 27162 ft | 434 kts | 309° |
| 2026-04-26 07:28 | 46.53511 | 4.72458 | 26641 ft | 430 kts | 309° |
| 2026-04-26 07:28 | 46.55446 | 4.69158 | 26113 ft | 427 kts | 309° |
| 2026-04-26 07:28 | 46.57370 | 4.65875 | 25598 ft | 424 kts | 309° |
| 2026-04-26 07:29 | 46.59274 | 4.62619 | 25084 ft | 421 kts | 310° |
| 2026-04-26 07:29 | 46.61164 | 4.59385 | 24591 ft | 418 kts | 310° |
| 2026-04-26 07:29 | 46.63046 | 4.56162 | 24080 ft | 416 kts | 310° |
| 2026-04-26 07:29 | 46.64915 | 4.52957 | 23534 ft | 415 kts | 310° |
| 2026-04-26 07:30 | 46.66754 | 4.49802 | 22963 ft | 412 kts | 310° |
| 2026-04-26 07:30 | 46.68601 | 4.46624 | 22450 ft | 409 kts | 310° |
| 2026-04-26 07:30 | 46.70432 | 4.43470 | 21951 ft | 406 kts | 310° |
| 2026-04-26 07:30 | 46.72249 | 4.40340 | 21450 ft | 403 kts | 310° |
| 2026-04-26 07:31 | 46.74056 | 4.37225 | 20958 ft | 400 kts | 310° |
| 2026-04-26 07:31 | 46.75843 | 4.34142 | 20479 ft | 397 kts | 310° |
| 2026-04-26 07:31 | 46.77622 | 4.31066 | 20000 ft | 395 kts | 309° |
| 2026-04-26 07:31 | 46.79392 | 4.28010 | 19507 ft | 390 kts | 311° |
| 2026-04-26 07:32 | 46.81424 | 4.25436 | 19149 ft | 384 kts | 329° |
| 2026-04-26 07:32 | 46.83791 | 4.23866 | 19059 ft | 375 kts | 338° |
| 2026-04-26 07:32 | 46.86246 | 4.22464 | 18952 ft | 382 kts | 338° |
| 2026-04-26 07:32 | 46.88751 | 4.21050 | 18831 ft | 388 kts | 338° |
| 2026-04-26 07:33 | 46.91274 | 4.19619 | 18701 ft | 389 kts | 338° |
| 2026-04-26 07:33 | 46.93789 | 4.18177 | 18579 ft | 387 kts | 338° |
| 2026-04-26 07:33 | 46.96298 | 4.16727 | 18446 ft | 385 kts | 337° |
| 2026-04-26 07:33 | 46.98774 | 4.15287 | 18310 ft | 384 kts | 337° |
| 2026-04-26 07:34 | 47.01237 | 4.13847 | 18185 ft | 382 kts | 337° |
| 2026-04-26 07:34 | 47.03692 | 4.12406 | 18065 ft | 381 kts | 337° |
| 2026-04-26 07:34 | 47.06151 | 4.10962 | 17947 ft | 380 kts | 337° |
| 2026-04-26 07:34 | 47.08598 | 4.09522 | 17847 ft | 379 kts | 337° |
| 2026-04-26 07:35 | 47.11050 | 4.08076 | 17693 ft | 378 kts | 337° |
| 2026-04-26 07:35 | 47.13490 | 4.06637 | 17596 ft | 378 kts | 337° |
| 2026-04-26 07:35 | 47.15925 | 4.05198 | 17481 ft | 377 kts | 337° |
| 2026-04-26 07:35 | 47.18361 | 4.03760 | 17365 ft | 377 kts | 337° |
| 2026-04-26 07:36 | 47.20792 | 4.02323 | 17244 ft | 376 kts | 337° |
| 2026-04-26 07:36 | 47.23224 | 4.00882 | 17147 ft | 376 kts | 337° |
| 2026-04-26 07:36 | 47.25625 | 3.99459 | 17022 ft | 377 kts | 337° |
| 2026-04-26 07:36 | 47.28057 | 3.98016 | 16913 ft | 376 kts | 337° |
| 2026-04-26 07:37 | 47.30490 | 3.96571 | 16797 ft | 376 kts | 337° |
| 2026-04-26 07:37 | 47.32915 | 3.95130 | 16683 ft | 376 kts | 337° |
| 2026-04-26 07:37 | 47.35344 | 3.93686 | 16565 ft | 376 kts | 337° |
| 2026-04-26 07:37 | 47.37767 | 3.92241 | 16454 ft | 376 kts | 337° |
| 2026-04-26 07:38 | 47.40193 | 3.90795 | 16331 ft | 376 kts | 337° |
| 2026-04-26 07:38 | 47.42614 | 3.89350 | 16207 ft | 375 kts | 337° |
| 2026-04-26 07:38 | 47.45027 | 3.87909 | 16100 ft | 374 kts | 337° |
| 2026-04-26 07:38 | 47.47437 | 3.86467 | 15989 ft | 373 kts | 337° |
| 2026-04-26 07:39 | 47.49837 | 3.85030 | 15885 ft | 372 kts | 337° |
| 2026-04-26 07:39 | 47.52234 | 3.83594 | 15767 ft | 371 kts | 337° |
| 2026-04-26 07:39 | 47.54594 | 3.82199 | 15647 ft | 367 kts | 340° |
| 2026-04-26 07:39 | 47.57092 | 3.81516 | 15515 ft | 367 kts | 0° |
| 2026-04-26 07:40 | 47.59612 | 3.81951 | 15441 ft | 365 kts | 8° |
| 2026-04-26 07:40 | 47.62151 | 3.82533 | 15326 ft | 370 kts | 8° |
| 2026-04-26 07:40 | 47.64703 | 3.83119 | 15212 ft | 371 kts | 8° |
| 2026-04-26 07:40 | 47.67252 | 3.83696 | 15094 ft | 370 kts | 8° |
| 2026-04-26 07:41 | 47.69793 | 3.84262 | 14969 ft | 368 kts | 7° |
| 2026-04-26 07:41 | 47.72328 | 3.84820 | 14867 ft | 367 kts | 7° |
| 2026-04-26 07:41 | 47.74819 | 3.85363 | 14745 ft | 366 kts | 7° |
| 2026-04-26 07:41 | 47.77339 | 3.85910 | 14643 ft | 365 kts | 7° |
| 2026-04-26 07:42 | 47.79851 | 3.86454 | 14530 ft | 364 kts | 7° |
| 2026-04-26 07:42 | 47.82355 | 3.86998 | 14420 ft | 363 kts | 7° |
| 2026-04-26 07:42 | 47.84861 | 3.87537 | 14309 ft | 363 kts | 7° |
| 2026-04-26 07:42 | 47.87363 | 3.88077 | 14188 ft | 362 kts | 7° |
| 2026-04-26 07:43 | 47.89825 | 3.88611 | 14081 ft | 361 kts | 7° |
| 2026-04-26 07:43 | 47.92340 | 3.89156 | 13968 ft | 360 kts | 7° |
| 2026-04-26 07:43 | 47.94787 | 3.89688 | 13846 ft | 359 kts | 7° |
| 2026-04-26 07:43 | 47.97262 | 3.90229 | 13733 ft | 359 kts | 7° |
| 2026-04-26 07:44 | 47.99728 | 3.90763 | 13612 ft | 357 kts | 7° |
| 2026-04-26 07:44 | 48.02196 | 3.91298 | 13513 ft | 356 kts | 7° |
| 2026-04-26 07:44 | 48.04645 | 3.91831 | 13394 ft | 356 kts | 7° |
| 2026-04-26 07:44 | 48.07096 | 3.92363 | 13295 ft | 355 kts | 7° |
| 2026-04-26 07:45 | 48.09535 | 3.92897 | 13179 ft | 354 kts | 7° |
| 2026-04-26 07:45 | 48.11973 | 3.93432 | 13069 ft | 354 kts | 7° |
| 2026-04-26 07:45 | 48.14410 | 3.93965 | 12955 ft | 353 kts | 7° |
| 2026-04-26 07:45 | 48.16839 | 3.94496 | 12830 ft | 352 kts | 7° |
| 2026-04-26 07:46 | 48.19235 | 3.95021 | 12734 ft | 351 kts | 7° |
| 2026-04-26 07:46 | 48.21656 | 3.95552 | 12630 ft | 351 kts | 7° |
| 2026-04-26 07:46 | 48.24063 | 3.95969 | 12504 ft | 344 kts | 359° |
| 2026-04-26 07:46 | 48.26405 | 3.95334 | 12412 ft | 343 kts | 338° |
| 2026-04-26 07:47 | 48.28538 | 3.93750 | 12328 ft | 342 kts | 331° |
| 2026-04-26 07:47 | 48.30639 | 3.92030 | 12230 ft | 345 kts | 331° |
| 2026-04-26 07:47 | 48.32493 | 3.90505 | 12116 ft | 347 kts | 331° |
| 2026-04-26 07:48 | 48.32927 | 3.90149 | 12089 ft | 348 kts | 331° |
| 2026-04-26 07:48 | 48.33323 | 3.89824 | 12076 ft | 348 kts | 331° |
| 2026-04-26 07:48 | 48.35456 | 3.88081 | 11985 ft | 350 kts | 332° |
| 2026-04-26 07:48 | 48.37600 | 3.86342 | 11853 ft | 349 kts | 332° |
| 2026-04-26 07:49 | 48.39737 | 3.84616 | 11749 ft | 348 kts | 332° |
| 2026-04-26 07:49 | 48.41875 | 3.82896 | 11637 ft | 348 kts | 332° |
| 2026-04-26 07:49 | 48.44005 | 3.81177 | 11532 ft | 347 kts | 332° |
| 2026-04-26 07:50 | 48.48254 | 3.77752 | 11324 ft | 346 kts | 332° |
| 2026-04-26 07:50 | 48.50381 | 3.76035 | 11227 ft | 347 kts | 332° |
| 2026-04-26 07:50 | 48.52499 | 3.74319 | 11100 ft | 341 kts | 330° |
| 2026-04-26 07:50 | 48.54350 | 3.72156 | 10984 ft | 338 kts | 311° |
| 2026-04-26 07:51 | 48.55675 | 3.69238 | 10918 ft | 337 kts | 302° |
| 2026-04-26 07:51 | 48.56914 | 3.66239 | 10816 ft | 336 kts | 303° |
| 2026-04-26 07:51 | 48.58161 | 3.63290 | 10720 ft | 329 kts | 304° |
| 2026-04-26 07:51 | 48.59385 | 3.60424 | 10600 ft | 319 kts | 304° |
| 2026-04-26 07:52 | 48.60571 | 3.57655 | 10500 ft | 308 kts | 304° |
| 2026-04-26 07:52 | 48.61720 | 3.54975 | 10391 ft | 298 kts | 304° |
| 2026-04-26 07:52 | 48.62815 | 3.52420 | 10305 ft | 288 kts | 304° |
| 2026-04-26 07:52 | 48.63888 | 3.49917 | 10222 ft | 279 kts | 304° |
| 2026-04-26 07:53 | 48.64941 | 3.47457 | 10153 ft | 279 kts | 304° |
| 2026-04-26 07:53 | 48.65997 | 3.44986 | 10045 ft | 279 kts | 304° |
| 2026-04-26 07:53 | 48.67055 | 3.42509 | 9969 ft | 279 kts | 304° |
| 2026-04-26 07:53 | 48.68109 | 3.40033 | 9886 ft | 279 kts | 304° |
| 2026-04-26 07:54 | 48.69159 | 3.37567 | 9797 ft | 278 kts | 304° |
| 2026-04-26 07:54 | 48.70191 | 3.35144 | 9705 ft | 277 kts | 304° |
| 2026-04-26 07:54 | 48.71238 | 3.32682 | 9615 ft | 278 kts | 304° |
| 2026-04-26 07:54 | 48.72284 | 3.30223 | 9540 ft | 277 kts | 304° |
| 2026-04-26 07:55 | 48.73330 | 3.27762 | 9449 ft | 277 kts | 304° |
| 2026-04-26 07:55 | 48.74370 | 3.25307 | 9370 ft | 276 kts | 303° |
| 2026-04-26 07:55 | 48.75399 | 3.22875 | 9271 ft | 276 kts | 304° |
| 2026-04-26 07:55 | 48.76435 | 3.20430 | 9183 ft | 275 kts | 304° |
| 2026-04-26 07:56 | 48.77463 | 3.18004 | 9120 ft | 271 kts | 304° |
| 2026-04-26 07:56 | 48.78481 | 3.15593 | 9032 ft | 271 kts | 304° |
| 2026-04-26 07:56 | 48.79497 | 3.13188 | 8947 ft | 270 kts | 304° |
| 2026-04-26 07:56 | 48.80509 | 3.10787 | 8862 ft | 269 kts | 304° |
| 2026-04-26 07:57 | 48.81516 | 3.08395 | 8769 ft | 269 kts | 304° |
| 2026-04-26 07:57 | 48.82523 | 3.06006 | 8696 ft | 270 kts | 304° |
| 2026-04-26 07:57 | 48.83537 | 3.03595 | 8610 ft | 272 kts | 303° |
| 2026-04-26 07:57 | 48.84565 | 3.01185 | 8535 ft | 272 kts | 307° |
| 2026-04-26 07:58 | 48.85781 | 2.98986 | 8451 ft | 272 kts | 314° |
| 2026-04-26 07:58 | 48.87086 | 2.96905 | 8368 ft | 272 kts | 315° |
| 2026-04-26 07:58 | 48.88373 | 2.94842 | 8271 ft | 272 kts | 314° |
| 2026-04-26 07:58 | 48.89669 | 2.92730 | 8183 ft | 272 kts | 314° |
| 2026-04-26 07:59 | 48.90945 | 2.90630 | 8169 ft | 268 kts | 314° |
| 2026-04-26 07:59 | 48.91783 | 2.89246 | 8174 ft | 266 kts | 314° |
| 2026-04-26 07:59 | 48.93006 | 2.87153 | 8131 ft | 263 kts | 306° |
| 2026-04-26 07:59 | 48.93665 | 2.84552 | 8076 ft | 271 kts | 276° |
| 2026-04-26 08:00 | 48.93601 | 2.81671 | 8020 ft | 276 kts | 266° |
| 2026-04-26 08:00 | 48.93436 | 2.78730 | 7940 ft | 281 kts | 266° |
| 2026-04-26 08:00 | 48.93269 | 2.75786 | 7838 ft | 277 kts | 266° |
| 2026-04-26 08:00 | 48.93107 | 2.72892 | 7742 ft | 273 kts | 266° |
| 2026-04-26 08:01 | 48.93027 | 2.71453 | 7701 ft | 271 kts | 266° |
| 2026-04-26 08:01 | 48.92871 | 2.68642 | 7621 ft | 268 kts | 266° |
| 2026-04-26 08:01 | 48.92713 | 2.65795 | 7534 ft | 267 kts | 266° |
| 2026-04-26 08:01 | 48.92564 | 2.63010 | 7456 ft | 269 kts | 266° |
| 2026-04-26 08:02 | 48.92410 | 2.60180 | 7391 ft | 267 kts | 266° |
| 2026-04-26 08:02 | 48.92257 | 2.57370 | 7285 ft | 266 kts | 266° |
| 2026-04-26 08:02 | 48.92106 | 2.54559 | 7216 ft | 268 kts | 266° |
| 2026-04-26 08:02 | 48.91953 | 2.51734 | 7131 ft | 269 kts | 266° |
| 2026-04-26 08:03 | 48.91796 | 2.48886 | 7060 ft | 270 kts | 266° |
| 2026-04-26 08:03 | 48.91637 | 2.46035 | 6982 ft | 271 kts | 266° |
| 2026-04-26 08:03 | 48.91480 | 2.43198 | 6898 ft | 273 kts | 266° |
| 2026-04-26 08:03 | 48.91318 | 2.40309 | 6816 ft | 275 kts | 265° |
| 2026-04-26 08:04 | 48.91155 | 2.37402 | 6733 ft | 277 kts | 266° |
| 2026-04-26 08:04 | 48.90991 | 2.34485 | 6637 ft | 276 kts | 266° |
| 2026-04-26 08:04 | 48.90829 | 2.31588 | 6555 ft | 275 kts | 266° |
| 2026-04-26 08:04 | 48.90667 | 2.28694 | 6453 ft | 272 kts | 266° |
| 2026-04-26 08:05 | 48.90505 | 2.25881 | 6371 ft | 263 kts | 266° |
| 2026-04-26 08:05 | 48.90347 | 2.23153 | 6288 ft | 254 kts | 265° |
| 2026-04-26 08:05 | 48.90196 | 2.20521 | 6190 ft | 245 kts | 265° |
| 2026-04-26 08:05 | 48.90049 | 2.17983 | 6132 ft | 236 kts | 265° |
| 2026-04-26 08:06 | 48.89911 | 2.15580 | 6068 ft | 228 kts | 265° |
| 2026-04-26 08:06 | 48.89766 | 2.13080 | 5831 ft | 242 kts | 265° |
| 2026-04-26 08:06 | 48.89890 | 2.10580 | 5639 ft | 236 kts | 293° |
| 2026-04-26 08:06 | 48.90840 | 2.08645 | 5563 ft | 226 kts | 326° |
| 2026-04-26 08:07 | 48.92254 | 2.07773 | 5485 ft | 222 kts | 355° |
| 2026-04-26 08:07 | 48.93762 | 2.08005 | 5405 ft | 217 kts | 21° |
| 2026-04-26 08:07 | 48.95050 | 2.09159 | 5348 ft | 215 kts | 45° |
| 2026-04-26 08:07 | 48.95912 | 2.10959 | 5295 ft | 213 kts | 60° |
| 2026-04-26 08:08 | 48.96615 | 2.12956 | 5188 ft | 213 kts | 69° |
| 2026-04-26 08:08 | 48.96993 | 2.15130 | 5121 ft | 213 kts | 79° |
| 2026-04-26 08:08 | 48.97196 | 2.17375 | 5095 ft | 214 kts | 83° |
| 2026-04-26 08:08 | 48.97335 | 2.19608 | 5016 ft | 208 kts | 84° |
| 2026-04-26 08:09 | 48.97456 | 2.21789 | 4802 ft | 208 kts | 85° |
| 2026-04-26 08:09 | 48.97569 | 2.23943 | 4549 ft | 203 kts | 85° |
| 2026-04-26 08:09 | 48.97681 | 2.26044 | 4294 ft | 197 kts | 85° |
| 2026-04-26 08:09 | 48.97785 | 2.28073 | 4030 ft | 192 kts | 85° |
| 2026-04-26 08:10 | 48.97892 | 2.30075 | 3776 ft | 187 kts | 85° |
| 2026-04-26 08:10 | 48.97997 | 2.32028 | 3522 ft | 184 kts | 85° |
| 2026-04-26 08:10 | 48.98097 | 2.33937 | 3284 ft | 178 kts | 85° |
| 2026-04-26 08:10 | 48.98197 | 2.35766 | 3063 ft | 167 kts | 85° |
| 2026-04-26 08:11 | 48.98284 | 2.37465 | 2851 ft | 156 kts | 86° |
| 2026-04-26 08:11 | 48.98366 | 2.39074 | 2621 ft | 145 kts | 85° |
| 2026-04-26 08:11 | 48.98447 | 2.40566 | 2478 ft | 142 kts | 85° |
| 2026-04-26 08:11 | 48.98524 | 2.42043 | 2261 ft | 140 kts | 86° |
| 2026-04-26 08:12 | 48.98592 | 2.43503 | 2088 ft | 137 kts | 86° |
| 2026-04-26 08:12 | 48.98669 | 2.44959 | 1902 ft | 137 kts | 85° |
| 2026-04-26 08:12 | 48.98735 | 2.46429 | 1726 ft | 140 kts | 86° |
| 2026-04-26 08:12 | 48.98820 | 2.47911 | 1525 ft | 141 kts | 84° |
| 2026-04-26 08:13 | 48.98903 | 2.49387 | 1314 ft | 139 kts | 84° |
| 2026-04-26 08:13 | 48.98986 | 2.50863 | 1101 ft | 141 kts | 84° |
| 2026-04-26 08:13 | 48.99064 | 2.52356 | 920 ft | 142 kts | 84° |
| 2026-04-26 08:13 | 48.99139 | 2.53819 | 719 ft | 140 kts | 83° |
| 2026-04-26 08:14 | 48.99221 | 2.55296 | 523 ft | 138 kts | 83° |
| 2026-04-26 08:14 | 48.99301 | 2.56757 | 372 ft | 139 kts | 83° |
| 2026-04-26 08:14 | 48.99373 | 2.58094 | 363 ft | 106 kts | 85° |
| 2026-04-26 08:14 | 48.99416 | 2.58935 | 362 ft | 53 kts | 86° |
| 2026-04-26 08:15 | 48.99496 | 2.59348 | 363 ft | 28 kts | 65° |
| 2026-04-26 08:15 | 48.99558 | 2.59549 | 364 ft | 13 kts | 65° |
| 2026-04-26 08:15 | 48.99585 | 2.59637 | 366 ft | 7 kts | 65° |
| 2026-04-26 08:15 | 48.99612 | 2.59693 | 366 ft | 7 kts | 22° |
| 2026-04-26 08:16 | 48.99661 | 2.59693 | 365 ft | 7 kts | 360° |
| 2026-04-26 08:16 | 48.99721 | 2.59684 | 363 ft | 13 kts | 354° |
| 2026-04-26 08:16 | 48.99821 | 2.59668 | 362 ft | 15 kts | 354° |
| 2026-04-26 08:16 | 48.99926 | 2.59657 | 365 ft | 15 kts | 357° |
| 2026-04-26 08:17 | 49.00031 | 2.59647 | 365 ft | 15 kts | 351° |
| 2026-04-26 08:17 | 49.00076 | 2.59522 | 364 ft | 15 kts | 266° |
| 2026-04-26 08:17 | 49.00068 | 2.59360 | 363 ft | 15 kts | 266° |
| 2026-04-26 08:17 | 49.00061 | 2.59198 | 365 ft | 15 kts | 266° |
| 2026-04-26 08:18 | 49.00051 | 2.59036 | 362 ft | 16 kts | 264° |
| 2026-04-26 08:18 | 49.00042 | 2.58871 | 359 ft | 16 kts | 265° |
| 2026-04-26 08:18 | 49.00079 | 2.58757 | 364 ft | 12 kts | 341° |
| 2026-04-26 08:18 | 49.00163 | 2.58763 | 361 ft | 12 kts | 355° |
| 2026-04-26 08:19 | 49.00246 | 2.58753 | 364 ft | 9 kts | 355° |
| 2026-04-26 08:19 | 49.00286 | 2.58711 | 363 ft | 8 kts | 285° |
| 2026-04-26 08:19 | 49.00287 | 2.58639 | 364 ft | 6 kts | 265° |
| 2026-04-26 08:19 | 49.00287 | 2.58623 | 364 ft | 0 kts | 265° |